<?xml version="1.0" encoding="UTF-8" standalone="no" ?>
<gpx xmlns="http://www.topografix.com/GPX/1/1" xmlns:xsi="http://www.w3.org/2001/XMLSchema-instance" xsi:schemaLocation="http://www.topografix.com/GPX/1/1 http://www.topografix.com/GPX/1/1/gpx.xsd" version="1.1" creator="VisuGPX - https://www.visugpx.com">
  <metadata>
    <name> étapes en Corse</name>
    <desc><![CDATA[Etape 1 les Agriates
Etape 2 îles Rousse-Calvi
Etape 3  Galeria Scandola]]></desc>
  </metadata>
  <wpt lat="43.22555" lon="6.44935">
    <ele>54</ele>
    <name><![CDATA[parking]]></name>
    <desc><![CDATA[16-MAI-15 9:26:59]]></desc>
    <cmt><![CDATA[16-MAI-15 9:26:59]]></cmt>
    <type><![CDATA[user]]></type>
  </wpt>
  <wpt lat="43.23505" lon="6.4006">
    <ele>423</ele>
    <name><![CDATA[parking02]]></name>
    <desc><![CDATA[16-MAI-15 12:19:33]]></desc>
    <cmt><![CDATA[16-MAI-15 12:19:33]]></cmt>
    <type><![CDATA[user]]></type>
  </wpt>
  <wpt lat="43.21304" lon="6.4631">
    <ele>42</ele>
    <name><![CDATA[piste]]></name>
    <desc><![CDATA[Chemin]]></desc>
    <cmt><![CDATA[Chemin]]></cmt>
    <type><![CDATA[user]]></type>
  </wpt>
  <trk>
    <name><![CDATA[Tracé actuel: 01 JUIN 2017 09:15 002]]></name>
    <trkseg>
      <trkpt lat="42.63811" lon="8.93461">
        <ele>-81.33</ele>
        <time>2017-06-02T07:34:18Z</time>
      </trkpt>
      <trkpt lat="42.63826" lon="8.93454">
        <ele>-97.51</ele>
        <time>2017-06-02T07:34:32Z</time>
      </trkpt>
      <trkpt lat="42.63841" lon="8.9345">
        <ele>-97.05</ele>
        <time>2017-06-02T07:34:52Z</time>
      </trkpt>
      <trkpt lat="42.63835" lon="8.93453">
        <ele>-97.88</ele>
        <time>2017-06-02T07:35:05Z</time>
      </trkpt>
      <trkpt lat="42.63884" lon="8.93479">
        <ele>-97.63</ele>
        <time>2017-06-02T07:35:47Z</time>
      </trkpt>
      <trkpt lat="42.63887" lon="8.93477">
        <ele>-94.98</ele>
        <time>2017-06-02T07:36:26Z</time>
      </trkpt>
      <trkpt lat="42.63888" lon="8.93477">
        <ele>-93.82</ele>
        <time>2017-06-02T07:36:44Z</time>
      </trkpt>
      <trkpt lat="42.63891" lon="8.93469">
        <ele>-93.15</ele>
        <time>2017-06-02T07:37:02Z</time>
      </trkpt>
      <trkpt lat="42.63894" lon="8.93465">
        <ele>-93.21</ele>
        <time>2017-06-02T07:37:24Z</time>
      </trkpt>
      <trkpt lat="42.6389" lon="8.93454">
        <ele>-91.6</ele>
        <time>2017-06-02T07:37:50Z</time>
      </trkpt>
      <trkpt lat="42.63888" lon="8.9346">
        <ele>-90.36</ele>
        <time>2017-06-02T07:38:11Z</time>
      </trkpt>
      <trkpt lat="42.63892" lon="8.93467">
        <ele>-89.29</ele>
        <time>2017-06-02T07:38:32Z</time>
      </trkpt>
      <trkpt lat="42.63904" lon="8.93474">
        <ele>-88.33</ele>
        <time>2017-06-02T07:38:50Z</time>
      </trkpt>
      <trkpt lat="42.63911" lon="8.93473">
        <ele>-87.41</ele>
        <time>2017-06-02T07:39:13Z</time>
      </trkpt>
      <trkpt lat="42.63915" lon="8.93467">
        <ele>-86.77</ele>
        <time>2017-06-02T07:39:27Z</time>
      </trkpt>
      <trkpt lat="42.63916" lon="8.93464">
        <ele>-86.65</ele>
        <time>2017-06-02T07:39:29Z</time>
      </trkpt>
      <trkpt lat="42.63924" lon="8.93426">
        <ele>-85.96</ele>
        <time>2017-06-02T07:39:47Z</time>
      </trkpt>
      <trkpt lat="42.63924" lon="8.93379">
        <ele>-85.17</ele>
        <time>2017-06-02T07:40:05Z</time>
      </trkpt>
      <trkpt lat="42.6392" lon="8.93327">
        <ele>-84.19</ele>
        <time>2017-06-02T07:40:24Z</time>
      </trkpt>
      <trkpt lat="42.6392" lon="8.93279">
        <ele>-83.22</ele>
        <time>2017-06-02T07:40:41Z</time>
      </trkpt>
      <trkpt lat="42.63917" lon="8.93228">
        <ele>-82.61</ele>
        <time>2017-06-02T07:40:59Z</time>
      </trkpt>
      <trkpt lat="42.6392" lon="8.93177">
        <ele>-81.55</ele>
        <time>2017-06-02T07:41:17Z</time>
      </trkpt>
      <trkpt lat="42.63923" lon="8.9313">
        <ele>-80.85</ele>
        <time>2017-06-02T07:41:33Z</time>
      </trkpt>
      <trkpt lat="42.63925" lon="8.93084">
        <ele>-80.17</ele>
        <time>2017-06-02T07:41:49Z</time>
      </trkpt>
      <trkpt lat="42.63925" lon="8.93037">
        <ele>-79.56</ele>
        <time>2017-06-02T07:42:05Z</time>
      </trkpt>
      <trkpt lat="42.63927" lon="8.92995">
        <ele>-79.01</ele>
        <time>2017-06-02T07:42:20Z</time>
      </trkpt>
      <trkpt lat="42.63928" lon="8.92936">
        <ele>-78.06</ele>
        <time>2017-06-02T07:42:41Z</time>
      </trkpt>
      <trkpt lat="42.63933" lon="8.92884">
        <ele>-77.04</ele>
        <time>2017-06-02T07:42:59Z</time>
      </trkpt>
      <trkpt lat="42.63936" lon="8.92833">
        <ele>-76.49</ele>
        <time>2017-06-02T07:43:17Z</time>
      </trkpt>
      <trkpt lat="42.63934" lon="8.9279">
        <ele>-75.72</ele>
        <time>2017-06-02T07:43:32Z</time>
      </trkpt>
      <trkpt lat="42.63932" lon="8.92744">
        <ele>-75.35</ele>
        <time>2017-06-02T07:43:48Z</time>
      </trkpt>
      <trkpt lat="42.63928" lon="8.92701">
        <ele>-74.58</ele>
        <time>2017-06-02T07:44:03Z</time>
      </trkpt>
      <trkpt lat="42.63931" lon="8.92655">
        <ele>-73.91</ele>
        <time>2017-06-02T07:44:19Z</time>
      </trkpt>
      <trkpt lat="42.63937" lon="8.92601">
        <ele>-73.31</ele>
        <time>2017-06-02T07:44:38Z</time>
      </trkpt>
      <trkpt lat="42.63942" lon="8.92561">
        <ele>-72.49</ele>
        <time>2017-06-02T07:44:53Z</time>
      </trkpt>
      <trkpt lat="42.63952" lon="8.92521">
        <ele>-71.79</ele>
        <time>2017-06-02T07:45:08Z</time>
      </trkpt>
      <trkpt lat="42.6396" lon="8.92479">
        <ele>-71.2</ele>
        <time>2017-06-02T07:45:24Z</time>
      </trkpt>
      <trkpt lat="42.63966" lon="8.92438">
        <ele>-70.79</ele>
        <time>2017-06-02T07:45:40Z</time>
      </trkpt>
      <trkpt lat="42.63972" lon="8.92398">
        <ele>-70.26</ele>
        <time>2017-06-02T07:45:55Z</time>
      </trkpt>
      <trkpt lat="42.63976" lon="8.92346">
        <ele>-69.32</ele>
        <time>2017-06-02T07:46:14Z</time>
      </trkpt>
      <trkpt lat="42.63975" lon="8.92308">
        <ele>-68.83</ele>
        <time>2017-06-02T07:46:29Z</time>
      </trkpt>
      <trkpt lat="42.63977" lon="8.92274">
        <ele>-68.17</ele>
        <time>2017-06-02T07:46:42Z</time>
      </trkpt>
      <trkpt lat="42.63979" lon="8.92238">
        <ele>-67.51</ele>
        <time>2017-06-02T07:46:57Z</time>
      </trkpt>
      <trkpt lat="42.63984" lon="8.92228">
        <ele>-66.49</ele>
        <time>2017-06-02T07:47:13Z</time>
      </trkpt>
      <trkpt lat="42.63987" lon="8.92236">
        <ele>-65.62</ele>
        <time>2017-06-02T07:47:38Z</time>
      </trkpt>
      <trkpt lat="42.63994" lon="8.92239">
        <ele>-65.23</ele>
        <time>2017-06-02T07:47:45Z</time>
      </trkpt>
      <trkpt lat="42.64" lon="8.92231">
        <ele>-65.13</ele>
        <time>2017-06-02T07:47:56Z</time>
      </trkpt>
      <trkpt lat="42.63998" lon="8.92216">
        <ele>-64.4</ele>
        <time>2017-06-02T07:48:12Z</time>
      </trkpt>
      <trkpt lat="42.63995" lon="8.9221">
        <ele>-64.37</ele>
        <time>2017-06-02T07:48:18Z</time>
      </trkpt>
      <trkpt lat="42.63987" lon="8.92177">
        <ele>-63.54</ele>
        <time>2017-06-02T07:48:34Z</time>
      </trkpt>
      <trkpt lat="42.63971" lon="8.92144">
        <ele>-62.95</ele>
        <time>2017-06-02T07:48:50Z</time>
      </trkpt>
      <trkpt lat="42.63958" lon="8.92106">
        <ele>-62.77</ele>
        <time>2017-06-02T07:49:07Z</time>
      </trkpt>
      <trkpt lat="42.63949" lon="8.92074">
        <ele>-61.8</ele>
        <time>2017-06-02T07:49:21Z</time>
      </trkpt>
      <trkpt lat="42.63939" lon="8.92037">
        <ele>-61.2</ele>
        <time>2017-06-02T07:49:36Z</time>
      </trkpt>
      <trkpt lat="42.63928" lon="8.92007">
        <ele>-60.87</ele>
        <time>2017-06-02T07:49:49Z</time>
      </trkpt>
      <trkpt lat="42.63921" lon="8.91972">
        <ele>-60.45</ele>
        <time>2017-06-02T07:50:03Z</time>
      </trkpt>
      <trkpt lat="42.6391" lon="8.91943">
        <ele>-60.01</ele>
        <time>2017-06-02T07:50:15Z</time>
      </trkpt>
      <trkpt lat="42.63895" lon="8.91906">
        <ele>-59.63</ele>
        <time>2017-06-02T07:50:30Z</time>
      </trkpt>
      <trkpt lat="42.63881" lon="8.91872">
        <ele>-59.36</ele>
        <time>2017-06-02T07:50:44Z</time>
      </trkpt>
      <trkpt lat="42.63862" lon="8.91832">
        <ele>-58.33</ele>
        <time>2017-06-02T07:51:01Z</time>
      </trkpt>
      <trkpt lat="42.63844" lon="8.91799">
        <ele>-57.71</ele>
        <time>2017-06-02T07:51:16Z</time>
      </trkpt>
      <trkpt lat="42.63827" lon="8.91769">
        <ele>-57.23</ele>
        <time>2017-06-02T07:51:29Z</time>
      </trkpt>
      <trkpt lat="42.63811" lon="8.91738">
        <ele>-56.96</ele>
        <time>2017-06-02T07:51:44Z</time>
      </trkpt>
      <trkpt lat="42.63796" lon="8.91706">
        <ele>-56.45</ele>
        <time>2017-06-02T07:51:58Z</time>
      </trkpt>
      <trkpt lat="42.6378" lon="8.91672">
        <ele>-55.9</ele>
        <time>2017-06-02T07:52:13Z</time>
      </trkpt>
      <trkpt lat="42.63763" lon="8.91635">
        <ele>-55.4</ele>
        <time>2017-06-02T07:52:29Z</time>
      </trkpt>
      <trkpt lat="42.63751" lon="8.91603">
        <ele>-54.92</ele>
        <time>2017-06-02T07:52:42Z</time>
      </trkpt>
      <trkpt lat="42.63737" lon="8.91569">
        <ele>-54.52</ele>
        <time>2017-06-02T07:52:57Z</time>
      </trkpt>
      <trkpt lat="42.63725" lon="8.91539">
        <ele>-53.96</ele>
        <time>2017-06-02T07:53:12Z</time>
      </trkpt>
      <trkpt lat="42.63712" lon="8.9151">
        <ele>-53.65</ele>
        <time>2017-06-02T07:53:26Z</time>
      </trkpt>
      <trkpt lat="42.63698" lon="8.91477">
        <ele>-53.4</ele>
        <time>2017-06-02T07:53:40Z</time>
      </trkpt>
      <trkpt lat="42.63688" lon="8.91446">
        <ele>-52.97</ele>
        <time>2017-06-02T07:53:53Z</time>
      </trkpt>
      <trkpt lat="42.63678" lon="8.91416">
        <ele>-52.73</ele>
        <time>2017-06-02T07:54:06Z</time>
      </trkpt>
      <trkpt lat="42.63665" lon="8.91385">
        <ele>-52.1</ele>
        <time>2017-06-02T07:54:21Z</time>
      </trkpt>
      <trkpt lat="42.63649" lon="8.91361">
        <ele>-51.76</ele>
        <time>2017-06-02T07:54:33Z</time>
      </trkpt>
      <trkpt lat="42.63632" lon="8.91334">
        <ele>-51.12</ele>
        <time>2017-06-02T07:54:47Z</time>
      </trkpt>
      <trkpt lat="42.63615" lon="8.91308">
        <ele>-50.7</ele>
        <time>2017-06-02T07:55:02Z</time>
      </trkpt>
      <trkpt lat="42.63594" lon="8.91284">
        <ele>-50.19</ele>
        <time>2017-06-02T07:55:18Z</time>
      </trkpt>
      <trkpt lat="42.6358" lon="8.91273">
        <ele>-49.22</ele>
        <time>2017-06-02T07:55:35Z</time>
      </trkpt>
      <trkpt lat="42.6357" lon="8.91272">
        <ele>-48.36</ele>
        <time>2017-06-02T07:56:03Z</time>
      </trkpt>
      <trkpt lat="42.63564" lon="8.91263">
        <ele>-48.1</ele>
        <time>2017-06-02T07:56:22Z</time>
      </trkpt>
      <trkpt lat="42.63545" lon="8.91239">
        <ele>-47.77</ele>
        <time>2017-06-02T07:56:37Z</time>
      </trkpt>
      <trkpt lat="42.63522" lon="8.91215">
        <ele>-47.48</ele>
        <time>2017-06-02T07:56:51Z</time>
      </trkpt>
      <trkpt lat="42.63498" lon="8.9119">
        <ele>-47.24</ele>
        <time>2017-06-02T07:57:05Z</time>
      </trkpt>
      <trkpt lat="42.63468" lon="8.91165">
        <ele>-46.56</ele>
        <time>2017-06-02T07:57:21Z</time>
      </trkpt>
      <trkpt lat="42.63445" lon="8.91139">
        <ele>-46.28</ele>
        <time>2017-06-02T07:57:35Z</time>
      </trkpt>
      <trkpt lat="42.63423" lon="8.91115">
        <ele>-45.92</ele>
        <time>2017-06-02T07:57:48Z</time>
      </trkpt>
      <trkpt lat="42.63408" lon="8.91095">
        <ele>-45.57</ele>
        <time>2017-06-02T07:58:03Z</time>
      </trkpt>
      <trkpt lat="42.63392" lon="8.91066">
        <ele>-45.15</ele>
        <time>2017-06-02T07:58:18Z</time>
      </trkpt>
      <trkpt lat="42.63377" lon="8.91038">
        <ele>-45</ele>
        <time>2017-06-02T07:58:31Z</time>
      </trkpt>
      <trkpt lat="42.63362" lon="8.91009">
        <ele>-44.68</ele>
        <time>2017-06-02T07:58:43Z</time>
      </trkpt>
      <trkpt lat="42.6335" lon="8.90979">
        <ele>-44.36</ele>
        <time>2017-06-02T07:58:55Z</time>
      </trkpt>
      <trkpt lat="42.63341" lon="8.9095">
        <ele>-44.03</ele>
        <time>2017-06-02T07:59:06Z</time>
      </trkpt>
      <trkpt lat="42.63329" lon="8.90914">
        <ele>-43.71</ele>
        <time>2017-06-02T07:59:21Z</time>
      </trkpt>
      <trkpt lat="42.6332" lon="8.9088">
        <ele>-43.32</ele>
        <time>2017-06-02T07:59:34Z</time>
      </trkpt>
      <trkpt lat="42.63312" lon="8.90844">
        <ele>-43.02</ele>
        <time>2017-06-02T07:59:48Z</time>
      </trkpt>
      <trkpt lat="42.63296" lon="8.90808">
        <ele>-42.87</ele>
        <time>2017-06-02T08:00:04Z</time>
      </trkpt>
      <trkpt lat="42.63283" lon="8.90781">
        <ele>-42.71</ele>
        <time>2017-06-02T08:00:16Z</time>
      </trkpt>
      <trkpt lat="42.63267" lon="8.90749">
        <ele>-42.47</ele>
        <time>2017-06-02T08:00:30Z</time>
      </trkpt>
      <trkpt lat="42.63251" lon="8.90715">
        <ele>-42.25</ele>
        <time>2017-06-02T08:00:44Z</time>
      </trkpt>
      <trkpt lat="42.63234" lon="8.90674">
        <ele>-41.61</ele>
        <time>2017-06-02T08:01:00Z</time>
      </trkpt>
      <trkpt lat="42.63218" lon="8.90635">
        <ele>-41.08</ele>
        <time>2017-06-02T08:01:16Z</time>
      </trkpt>
      <trkpt lat="42.63203" lon="8.90605">
        <ele>-40.83</ele>
        <time>2017-06-02T08:01:29Z</time>
      </trkpt>
      <trkpt lat="42.63192" lon="8.90573">
        <ele>-40.35</ele>
        <time>2017-06-02T08:01:42Z</time>
      </trkpt>
      <trkpt lat="42.63182" lon="8.90544">
        <ele>-40.19</ele>
        <time>2017-06-02T08:01:54Z</time>
      </trkpt>
      <trkpt lat="42.63165" lon="8.90518">
        <ele>-40.01</ele>
        <time>2017-06-02T08:02:07Z</time>
      </trkpt>
      <trkpt lat="42.6315" lon="8.90492">
        <ele>-39.76</ele>
        <time>2017-06-02T08:02:20Z</time>
      </trkpt>
      <trkpt lat="42.63133" lon="8.90465">
        <ele>-39.41</ele>
        <time>2017-06-02T08:02:33Z</time>
      </trkpt>
      <trkpt lat="42.63114" lon="8.90423">
        <ele>-38.95</ele>
        <time>2017-06-02T08:02:50Z</time>
      </trkpt>
      <trkpt lat="42.63104" lon="8.90392">
        <ele>-38.78</ele>
        <time>2017-06-02T08:03:02Z</time>
      </trkpt>
      <trkpt lat="42.63092" lon="8.90363">
        <ele>-38.51</ele>
        <time>2017-06-02T08:03:14Z</time>
      </trkpt>
      <trkpt lat="42.63082" lon="8.90336">
        <ele>-38.39</ele>
        <time>2017-06-02T08:03:25Z</time>
      </trkpt>
      <trkpt lat="42.63068" lon="8.90295">
        <ele>-38.16</ele>
        <time>2017-06-02T08:03:41Z</time>
      </trkpt>
      <trkpt lat="42.63057" lon="8.90254">
        <ele>-37.77</ele>
        <time>2017-06-02T08:03:56Z</time>
      </trkpt>
      <trkpt lat="42.63048" lon="8.9022">
        <ele>-37.38</ele>
        <time>2017-06-02T08:04:09Z</time>
      </trkpt>
      <trkpt lat="42.63041" lon="8.90183">
        <ele>-37.06</ele>
        <time>2017-06-02T08:04:23Z</time>
      </trkpt>
      <trkpt lat="42.63035" lon="8.90149">
        <ele>-37.18</ele>
        <time>2017-06-02T08:04:36Z</time>
      </trkpt>
      <trkpt lat="42.63031" lon="8.90113">
        <ele>-36.77</ele>
        <time>2017-06-02T08:04:49Z</time>
      </trkpt>
      <trkpt lat="42.63029" lon="8.90094">
        <ele>-36.47</ele>
        <time>2017-06-02T08:04:56Z</time>
      </trkpt>
      <trkpt lat="42.63027" lon="8.90057">
        <ele>-36.39</ele>
        <time>2017-06-02T08:05:09Z</time>
      </trkpt>
      <trkpt lat="42.63023" lon="8.90019">
        <ele>-36.24</ele>
        <time>2017-06-02T08:05:23Z</time>
      </trkpt>
      <trkpt lat="42.63018" lon="8.89979">
        <ele>-36.08</ele>
        <time>2017-06-02T08:05:38Z</time>
      </trkpt>
      <trkpt lat="42.63013" lon="8.89941">
        <ele>-35.89</ele>
        <time>2017-06-02T08:05:52Z</time>
      </trkpt>
      <trkpt lat="42.63007" lon="8.89903">
        <ele>-35.33</ele>
        <time>2017-06-02T08:06:06Z</time>
      </trkpt>
      <trkpt lat="42.63005" lon="8.89868">
        <ele>-35.32</ele>
        <time>2017-06-02T08:06:19Z</time>
      </trkpt>
      <trkpt lat="42.63007" lon="8.89834">
        <ele>-35.34</ele>
        <time>2017-06-02T08:06:32Z</time>
      </trkpt>
      <trkpt lat="42.63008" lon="8.89798">
        <ele>-35.15</ele>
        <time>2017-06-02T08:06:45Z</time>
      </trkpt>
      <trkpt lat="42.63011" lon="8.89757">
        <ele>-35.13</ele>
        <time>2017-06-02T08:07:00Z</time>
      </trkpt>
      <trkpt lat="42.63013" lon="8.89713">
        <ele>-34.96</ele>
        <time>2017-06-02T08:07:16Z</time>
      </trkpt>
      <trkpt lat="42.63015" lon="8.8967">
        <ele>-34.61</ele>
        <time>2017-06-02T08:07:32Z</time>
      </trkpt>
      <trkpt lat="42.63014" lon="8.89631">
        <ele>-34.45</ele>
        <time>2017-06-02T08:07:47Z</time>
      </trkpt>
      <trkpt lat="42.63016" lon="8.89587">
        <ele>-34.25</ele>
        <time>2017-06-02T08:08:03Z</time>
      </trkpt>
      <trkpt lat="42.6302" lon="8.89547">
        <ele>-34.15</ele>
        <time>2017-06-02T08:08:18Z</time>
      </trkpt>
      <trkpt lat="42.63022" lon="8.89506">
        <ele>-34.01</ele>
        <time>2017-06-02T08:08:32Z</time>
      </trkpt>
      <trkpt lat="42.63024" lon="8.89461">
        <ele>-33.78</ele>
        <time>2017-06-02T08:08:48Z</time>
      </trkpt>
      <trkpt lat="42.63029" lon="8.89418">
        <ele>-33.16</ele>
        <time>2017-06-02T08:09:04Z</time>
      </trkpt>
      <trkpt lat="42.6304" lon="8.89383">
        <ele>-33.18</ele>
        <time>2017-06-02T08:09:18Z</time>
      </trkpt>
      <trkpt lat="42.63045" lon="8.89355">
        <ele>-33.15</ele>
        <time>2017-06-02T08:09:30Z</time>
      </trkpt>
      <trkpt lat="42.63039" lon="8.89325">
        <ele>-32.95</ele>
        <time>2017-06-02T08:09:43Z</time>
      </trkpt>
      <trkpt lat="42.63037" lon="8.89314">
        <ele>-32.63</ele>
        <time>2017-06-02T08:09:48Z</time>
      </trkpt>
      <trkpt lat="42.63034" lon="8.89307">
        <ele>-32.48</ele>
        <time>2017-06-02T08:09:52Z</time>
      </trkpt>
      <trkpt lat="42.63025" lon="8.89292">
        <ele>-31.99</ele>
        <time>2017-06-02T08:10:10Z</time>
      </trkpt>
      <trkpt lat="42.6302" lon="8.89289">
        <ele>-31.97</ele>
        <time>2017-06-02T08:10:35Z</time>
      </trkpt>
      <trkpt lat="42.63018" lon="8.89281">
        <ele>-31.87</ele>
        <time>2017-06-02T08:10:46Z</time>
      </trkpt>
      <trkpt lat="42.63017" lon="8.89268">
        <ele>-31.78</ele>
        <time>2017-06-02T08:10:53Z</time>
      </trkpt>
      <trkpt lat="42.63017" lon="8.89228">
        <ele>-31.51</ele>
        <time>2017-06-02T08:11:10Z</time>
      </trkpt>
      <trkpt lat="42.63017" lon="8.89181">
        <ele>-31.26</ele>
        <time>2017-06-02T08:11:29Z</time>
      </trkpt>
      <trkpt lat="42.63025" lon="8.8914">
        <ele>-31.12</ele>
        <time>2017-06-02T08:11:45Z</time>
      </trkpt>
      <trkpt lat="42.63034" lon="8.89105">
        <ele>-30.86</ele>
        <time>2017-06-02T08:11:59Z</time>
      </trkpt>
      <trkpt lat="42.63042" lon="8.89066">
        <ele>-30.64</ele>
        <time>2017-06-02T08:12:15Z</time>
      </trkpt>
      <trkpt lat="42.6305" lon="8.89029">
        <ele>-30.26</ele>
        <time>2017-06-02T08:12:30Z</time>
      </trkpt>
      <trkpt lat="42.63057" lon="8.88987">
        <ele>-30.19</ele>
        <time>2017-06-02T08:12:47Z</time>
      </trkpt>
      <trkpt lat="42.63064" lon="8.88942">
        <ele>-30.11</ele>
        <time>2017-06-02T08:13:04Z</time>
      </trkpt>
      <trkpt lat="42.63068" lon="8.88907">
        <ele>-29.79</ele>
        <time>2017-06-02T08:13:20Z</time>
      </trkpt>
      <trkpt lat="42.63065" lon="8.88865">
        <ele>-29.55</ele>
        <time>2017-06-02T08:13:37Z</time>
      </trkpt>
      <trkpt lat="42.63059" lon="8.88831">
        <ele>-29.24</ele>
        <time>2017-06-02T08:13:50Z</time>
      </trkpt>
      <trkpt lat="42.63056" lon="8.88796">
        <ele>-29.12</ele>
        <time>2017-06-02T08:14:05Z</time>
      </trkpt>
      <trkpt lat="42.63046" lon="8.88758">
        <ele>-28.91</ele>
        <time>2017-06-02T08:14:20Z</time>
      </trkpt>
      <trkpt lat="42.63037" lon="8.88718">
        <ele>-28.94</ele>
        <time>2017-06-02T08:14:35Z</time>
      </trkpt>
      <trkpt lat="42.63028" lon="8.88675">
        <ele>-28.6</ele>
        <time>2017-06-02T08:14:51Z</time>
      </trkpt>
      <trkpt lat="42.63022" lon="8.88636">
        <ele>-28.16</ele>
        <time>2017-06-02T08:15:06Z</time>
      </trkpt>
      <trkpt lat="42.63019" lon="8.88596">
        <ele>-28.06</ele>
        <time>2017-06-02T08:15:22Z</time>
      </trkpt>
      <trkpt lat="42.63021" lon="8.88553">
        <ele>-27.96</ele>
        <time>2017-06-02T08:15:38Z</time>
      </trkpt>
      <trkpt lat="42.63023" lon="8.88518">
        <ele>-28.1</ele>
        <time>2017-06-02T08:15:51Z</time>
      </trkpt>
      <trkpt lat="42.6303" lon="8.88479">
        <ele>-27.56</ele>
        <time>2017-06-02T08:16:06Z</time>
      </trkpt>
      <trkpt lat="42.63039" lon="8.88443">
        <ele>-27.49</ele>
        <time>2017-06-02T08:16:21Z</time>
      </trkpt>
      <trkpt lat="42.63048" lon="8.88408">
        <ele>-27.28</ele>
        <time>2017-06-02T08:16:38Z</time>
      </trkpt>
      <trkpt lat="42.6305" lon="8.88376">
        <ele>-26.86</ele>
        <time>2017-06-02T08:16:55Z</time>
      </trkpt>
      <trkpt lat="42.6305" lon="8.88361">
        <ele>-26.91</ele>
        <time>2017-06-02T08:17:04Z</time>
      </trkpt>
      <trkpt lat="42.63043" lon="8.88328">
        <ele>-26.42</ele>
        <time>2017-06-02T08:17:20Z</time>
      </trkpt>
      <trkpt lat="42.63035" lon="8.88302">
        <ele>-26.09</ele>
        <time>2017-06-02T08:17:38Z</time>
      </trkpt>
      <trkpt lat="42.63028" lon="8.88273">
        <ele>-26.33</ele>
        <time>2017-06-02T08:17:55Z</time>
      </trkpt>
      <trkpt lat="42.63023" lon="8.88244">
        <ele>-26.1</ele>
        <time>2017-06-02T08:18:08Z</time>
      </trkpt>
      <trkpt lat="42.63019" lon="8.88218">
        <ele>-26.08</ele>
        <time>2017-06-02T08:18:25Z</time>
      </trkpt>
      <trkpt lat="42.63014" lon="8.88207">
        <ele>-25.82</ele>
        <time>2017-06-02T08:18:32Z</time>
      </trkpt>
      <trkpt lat="42.63004" lon="8.88176">
        <ele>-25.53</ele>
        <time>2017-06-02T08:18:48Z</time>
      </trkpt>
      <trkpt lat="42.62992" lon="8.88143">
        <ele>-25.3</ele>
        <time>2017-06-02T08:19:04Z</time>
      </trkpt>
      <trkpt lat="42.62976" lon="8.88098">
        <ele>-24.96</ele>
        <time>2017-06-02T08:19:23Z</time>
      </trkpt>
      <trkpt lat="42.62963" lon="8.88058">
        <ele>-24.82</ele>
        <time>2017-06-02T08:19:39Z</time>
      </trkpt>
      <trkpt lat="42.62954" lon="8.88026">
        <ele>-24.85</ele>
        <time>2017-06-02T08:19:53Z</time>
      </trkpt>
      <trkpt lat="42.62943" lon="8.87983">
        <ele>-24.47</ele>
        <time>2017-06-02T08:20:11Z</time>
      </trkpt>
      <trkpt lat="42.62928" lon="8.87945">
        <ele>-23.83</ele>
        <time>2017-06-02T08:20:28Z</time>
      </trkpt>
      <trkpt lat="42.62908" lon="8.87915">
        <ele>-23.81</ele>
        <time>2017-06-02T08:20:44Z</time>
      </trkpt>
      <trkpt lat="42.62875" lon="8.87898">
        <ele>-23.47</ele>
        <time>2017-06-02T08:21:02Z</time>
      </trkpt>
      <trkpt lat="42.62847" lon="8.87888">
        <ele>-23.49</ele>
        <time>2017-06-02T08:21:16Z</time>
      </trkpt>
      <trkpt lat="42.62814" lon="8.8787">
        <ele>-23.23</ele>
        <time>2017-06-02T08:21:32Z</time>
      </trkpt>
      <trkpt lat="42.62786" lon="8.87848">
        <ele>-23.23</ele>
        <time>2017-06-02T08:21:48Z</time>
      </trkpt>
      <trkpt lat="42.62751" lon="8.87821">
        <ele>-22.71</ele>
        <time>2017-06-02T08:22:07Z</time>
      </trkpt>
      <trkpt lat="42.62719" lon="8.878">
        <ele>-22.61</ele>
        <time>2017-06-02T08:22:23Z</time>
      </trkpt>
      <trkpt lat="42.6268" lon="8.87781">
        <ele>-22.26</ele>
        <time>2017-06-02T08:22:41Z</time>
      </trkpt>
      <trkpt lat="42.62645" lon="8.87765">
        <ele>-21.99</ele>
        <time>2017-06-02T08:22:59Z</time>
      </trkpt>
      <trkpt lat="42.62606" lon="8.87757">
        <ele>-21.69</ele>
        <time>2017-06-02T08:23:17Z</time>
      </trkpt>
      <trkpt lat="42.62575" lon="8.87744">
        <ele>-21.63</ele>
        <time>2017-06-02T08:23:32Z</time>
      </trkpt>
      <trkpt lat="42.62537" lon="8.87726">
        <ele>-21.27</ele>
        <time>2017-06-02T08:23:50Z</time>
      </trkpt>
      <trkpt lat="42.62503" lon="8.87706">
        <ele>-20.97</ele>
        <time>2017-06-02T08:24:07Z</time>
      </trkpt>
      <trkpt lat="42.62462" lon="8.87691">
        <ele>-20.62</ele>
        <time>2017-06-02T08:24:27Z</time>
      </trkpt>
      <trkpt lat="42.6242" lon="8.87679">
        <ele>-20.63</ele>
        <time>2017-06-02T08:24:47Z</time>
      </trkpt>
      <trkpt lat="42.62385" lon="8.8766">
        <ele>-20.38</ele>
        <time>2017-06-02T08:25:04Z</time>
      </trkpt>
      <trkpt lat="42.62349" lon="8.87645">
        <ele>-20.14</ele>
        <time>2017-06-02T08:25:21Z</time>
      </trkpt>
      <trkpt lat="42.62319" lon="8.87631">
        <ele>-20.04</ele>
        <time>2017-06-02T08:25:36Z</time>
      </trkpt>
      <trkpt lat="42.6228" lon="8.87611">
        <ele>-19.68</ele>
        <time>2017-06-02T08:25:55Z</time>
      </trkpt>
      <trkpt lat="42.62244" lon="8.87594">
        <ele>-19.29</ele>
        <time>2017-06-02T08:26:13Z</time>
      </trkpt>
      <trkpt lat="42.62209" lon="8.87571">
        <ele>-19.14</ele>
        <time>2017-06-02T08:26:32Z</time>
      </trkpt>
      <trkpt lat="42.62176" lon="8.8754">
        <ele>-18.9</ele>
        <time>2017-06-02T08:26:51Z</time>
      </trkpt>
      <trkpt lat="42.62152" lon="8.87515">
        <ele>-18.81</ele>
        <time>2017-06-02T08:27:05Z</time>
      </trkpt>
      <trkpt lat="42.62122" lon="8.87486">
        <ele>-18.4</ele>
        <time>2017-06-02T08:27:23Z</time>
      </trkpt>
      <trkpt lat="42.62089" lon="8.87469">
        <ele>-18.47</ele>
        <time>2017-06-02T08:27:40Z</time>
      </trkpt>
      <trkpt lat="42.62052" lon="8.87445">
        <ele>-18.16</ele>
        <time>2017-06-02T08:27:59Z</time>
      </trkpt>
      <trkpt lat="42.6202" lon="8.8742">
        <ele>-17.87</ele>
        <time>2017-06-02T08:28:17Z</time>
      </trkpt>
      <trkpt lat="42.61992" lon="8.87396">
        <ele>-17.76</ele>
        <time>2017-06-02T08:28:33Z</time>
      </trkpt>
      <trkpt lat="42.61954" lon="8.87368">
        <ele>-17.43</ele>
        <time>2017-06-02T08:28:53Z</time>
      </trkpt>
      <trkpt lat="42.61927" lon="8.87357">
        <ele>-17.32</ele>
        <time>2017-06-02T08:29:07Z</time>
      </trkpt>
      <trkpt lat="42.61894" lon="8.87349">
        <ele>-17.22</ele>
        <time>2017-06-02T08:29:22Z</time>
      </trkpt>
      <trkpt lat="42.61857" lon="8.87338">
        <ele>-16.79</ele>
        <time>2017-06-02T08:29:39Z</time>
      </trkpt>
      <trkpt lat="42.61822" lon="8.87319">
        <ele>-16.58</ele>
        <time>2017-06-02T08:29:57Z</time>
      </trkpt>
      <trkpt lat="42.61788" lon="8.87292">
        <ele>-16.4</ele>
        <time>2017-06-02T08:30:16Z</time>
      </trkpt>
      <trkpt lat="42.61759" lon="8.87256">
        <ele>-16.25</ele>
        <time>2017-06-02T08:30:34Z</time>
      </trkpt>
      <trkpt lat="42.61732" lon="8.87217">
        <ele>-16</ele>
        <time>2017-06-02T08:30:53Z</time>
      </trkpt>
      <trkpt lat="42.61707" lon="8.87182">
        <ele>-15.59</ele>
        <time>2017-06-02T08:31:11Z</time>
      </trkpt>
      <trkpt lat="42.61683" lon="8.87142">
        <ele>-15.57</ele>
        <time>2017-06-02T08:31:31Z</time>
      </trkpt>
      <trkpt lat="42.6166" lon="8.87107">
        <ele>-15.23</ele>
        <time>2017-06-02T08:31:49Z</time>
      </trkpt>
      <trkpt lat="42.6164" lon="8.87063">
        <ele>-15.05</ele>
        <time>2017-06-02T08:32:08Z</time>
      </trkpt>
      <trkpt lat="42.61623" lon="8.87022">
        <ele>-15.26</ele>
        <time>2017-06-02T08:32:25Z</time>
      </trkpt>
      <trkpt lat="42.61601" lon="8.86977">
        <ele>-14.75</ele>
        <time>2017-06-02T08:32:45Z</time>
      </trkpt>
      <trkpt lat="42.61586" lon="8.86941">
        <ele>-14.47</ele>
        <time>2017-06-02T08:33:01Z</time>
      </trkpt>
      <trkpt lat="42.61566" lon="8.86911">
        <ele>-14.33</ele>
        <time>2017-06-02T08:33:16Z</time>
      </trkpt>
      <trkpt lat="42.61542" lon="8.86867">
        <ele>-14.12</ele>
        <time>2017-06-02T08:33:36Z</time>
      </trkpt>
      <trkpt lat="42.61526" lon="8.86828">
        <ele>-14.01</ele>
        <time>2017-06-02T08:33:53Z</time>
      </trkpt>
      <trkpt lat="42.61503" lon="8.86791">
        <ele>-13.77</ele>
        <time>2017-06-02T08:34:11Z</time>
      </trkpt>
      <trkpt lat="42.61483" lon="8.86748">
        <ele>-13.96</ele>
        <time>2017-06-02T08:34:30Z</time>
      </trkpt>
      <trkpt lat="42.61465" lon="8.86712">
        <ele>-13.92</ele>
        <time>2017-06-02T08:34:46Z</time>
      </trkpt>
      <trkpt lat="42.61448" lon="8.86676">
        <ele>-13.61</ele>
        <time>2017-06-02T08:35:02Z</time>
      </trkpt>
      <trkpt lat="42.61432" lon="8.86632">
        <ele>-13.28</ele>
        <time>2017-06-02T08:35:20Z</time>
      </trkpt>
      <trkpt lat="42.61416" lon="8.86593">
        <ele>-13.27</ele>
        <time>2017-06-02T08:35:37Z</time>
      </trkpt>
      <trkpt lat="42.614" lon="8.8655">
        <ele>-13.06</ele>
        <time>2017-06-02T08:35:55Z</time>
      </trkpt>
      <trkpt lat="42.61384" lon="8.86509">
        <ele>-13.17</ele>
        <time>2017-06-02T08:36:12Z</time>
      </trkpt>
      <trkpt lat="42.61369" lon="8.86468">
        <ele>-12.85</ele>
        <time>2017-06-02T08:36:29Z</time>
      </trkpt>
      <trkpt lat="42.61354" lon="8.86422">
        <ele>-12.7</ele>
        <time>2017-06-02T08:36:48Z</time>
      </trkpt>
      <trkpt lat="42.61341" lon="8.86385">
        <ele>-12.52</ele>
        <time>2017-06-02T08:37:03Z</time>
      </trkpt>
      <trkpt lat="42.61328" lon="8.86347">
        <ele>-12.73</ele>
        <time>2017-06-02T08:37:18Z</time>
      </trkpt>
      <trkpt lat="42.61315" lon="8.86303">
        <ele>-12.34</ele>
        <time>2017-06-02T08:37:35Z</time>
      </trkpt>
      <trkpt lat="42.61307" lon="8.86271">
        <ele>-12.17</ele>
        <time>2017-06-02T08:37:50Z</time>
      </trkpt>
      <trkpt lat="42.61294" lon="8.86229">
        <ele>-12.19</ele>
        <time>2017-06-02T08:38:08Z</time>
      </trkpt>
      <trkpt lat="42.61285" lon="8.86192">
        <ele>-12.15</ele>
        <time>2017-06-02T08:38:22Z</time>
      </trkpt>
      <trkpt lat="42.61281" lon="8.86151">
        <ele>-11.9</ele>
        <time>2017-06-02T08:38:38Z</time>
      </trkpt>
      <trkpt lat="42.6127" lon="8.86112">
        <ele>-11.67</ele>
        <time>2017-06-02T08:38:55Z</time>
      </trkpt>
      <trkpt lat="42.61258" lon="8.86078">
        <ele>-11.63</ele>
        <time>2017-06-02T08:39:09Z</time>
      </trkpt>
      <trkpt lat="42.61245" lon="8.8604">
        <ele>-11.47</ele>
        <time>2017-06-02T08:39:25Z</time>
      </trkpt>
      <trkpt lat="42.61237" lon="8.86003">
        <ele>-11.38</ele>
        <time>2017-06-02T08:39:40Z</time>
      </trkpt>
      <trkpt lat="42.61229" lon="8.85969">
        <ele>-11.25</ele>
        <time>2017-06-02T08:39:55Z</time>
      </trkpt>
      <trkpt lat="42.61218" lon="8.85922">
        <ele>-11.2</ele>
        <time>2017-06-02T08:40:15Z</time>
      </trkpt>
      <trkpt lat="42.61214" lon="8.85875">
        <ele>-11.01</ele>
        <time>2017-06-02T08:40:34Z</time>
      </trkpt>
      <trkpt lat="42.61213" lon="8.85832">
        <ele>-10.83</ele>
        <time>2017-06-02T08:40:51Z</time>
      </trkpt>
      <trkpt lat="42.61211" lon="8.85785">
        <ele>-10.73</ele>
        <time>2017-06-02T08:41:11Z</time>
      </trkpt>
      <trkpt lat="42.61207" lon="8.85747">
        <ele>-10.67</ele>
        <time>2017-06-02T08:41:27Z</time>
      </trkpt>
      <trkpt lat="42.61207" lon="8.85709">
        <ele>-10.56</ele>
        <time>2017-06-02T08:41:43Z</time>
      </trkpt>
      <trkpt lat="42.61209" lon="8.85666">
        <ele>-10.76</ele>
        <time>2017-06-02T08:42:00Z</time>
      </trkpt>
      <trkpt lat="42.61212" lon="8.85631">
        <ele>-10.47</ele>
        <time>2017-06-02T08:42:15Z</time>
      </trkpt>
      <trkpt lat="42.61214" lon="8.85593">
        <ele>-10.33</ele>
        <time>2017-06-02T08:42:30Z</time>
      </trkpt>
      <trkpt lat="42.61216" lon="8.8556">
        <ele>-10.36</ele>
        <time>2017-06-02T08:42:43Z</time>
      </trkpt>
      <trkpt lat="42.61219" lon="8.85528">
        <ele>-10.41</ele>
        <time>2017-06-02T08:42:56Z</time>
      </trkpt>
      <trkpt lat="42.61223" lon="8.85506">
        <ele>-10.47</ele>
        <time>2017-06-02T08:43:05Z</time>
      </trkpt>
      <trkpt lat="42.61226" lon="8.85473">
        <ele>-10.31</ele>
        <time>2017-06-02T08:43:19Z</time>
      </trkpt>
      <trkpt lat="42.6123" lon="8.85443">
        <ele>-10.23</ele>
        <time>2017-06-02T08:43:31Z</time>
      </trkpt>
      <trkpt lat="42.6124" lon="8.85404">
        <ele>-10.22</ele>
        <time>2017-06-02T08:43:48Z</time>
      </trkpt>
      <trkpt lat="42.61245" lon="8.85373">
        <ele>-10.11</ele>
        <time>2017-06-02T08:44:03Z</time>
      </trkpt>
      <trkpt lat="42.61246" lon="8.85341">
        <ele>-10.13</ele>
        <time>2017-06-02T08:44:19Z</time>
      </trkpt>
      <trkpt lat="42.61251" lon="8.85303">
        <ele>-9.9</ele>
        <time>2017-06-02T08:44:36Z</time>
      </trkpt>
      <trkpt lat="42.61254" lon="8.85275">
        <ele>-9.79</ele>
        <time>2017-06-02T08:44:51Z</time>
      </trkpt>
      <trkpt lat="42.61253" lon="8.85244">
        <ele>-9.43</ele>
        <time>2017-06-02T08:45:09Z</time>
      </trkpt>
      <trkpt lat="42.61253" lon="8.85212">
        <ele>-9.7</ele>
        <time>2017-06-02T08:45:27Z</time>
      </trkpt>
      <trkpt lat="42.61251" lon="8.85185">
        <ele>-9.71</ele>
        <time>2017-06-02T08:45:46Z</time>
      </trkpt>
      <trkpt lat="42.6125" lon="8.85183">
        <ele>-9.1</ele>
        <time>2017-06-02T08:46:15Z</time>
      </trkpt>
      <trkpt lat="42.61246" lon="8.85185">
        <ele>-8.9</ele>
        <time>2017-06-02T08:46:43Z</time>
      </trkpt>
      <trkpt lat="42.61243" lon="8.85185">
        <ele>-8.62</ele>
        <time>2017-06-02T08:47:12Z</time>
      </trkpt>
      <trkpt lat="42.61239" lon="8.85181">
        <ele>-8.91</ele>
        <time>2017-06-02T08:47:39Z</time>
      </trkpt>
      <trkpt lat="42.61237" lon="8.85174">
        <ele>-8.71</ele>
        <time>2017-06-02T08:48:01Z</time>
      </trkpt>
      <trkpt lat="42.61237" lon="8.85172">
        <ele>-8.77</ele>
        <time>2017-06-02T08:48:03Z</time>
      </trkpt>
      <trkpt lat="42.61228" lon="8.8514">
        <ele>-8.67</ele>
        <time>2017-06-02T08:48:20Z</time>
      </trkpt>
      <trkpt lat="42.61214" lon="8.85105">
        <ele>-8.52</ele>
        <time>2017-06-02T08:48:38Z</time>
      </trkpt>
      <trkpt lat="42.61198" lon="8.85069">
        <ele>-8.52</ele>
        <time>2017-06-02T08:48:56Z</time>
      </trkpt>
      <trkpt lat="42.6118" lon="8.85033">
        <ele>-8.37</ele>
        <time>2017-06-02T08:49:14Z</time>
      </trkpt>
      <trkpt lat="42.6117" lon="8.85006">
        <ele>-8.59</ele>
        <time>2017-06-02T08:49:26Z</time>
      </trkpt>
      <trkpt lat="42.61154" lon="8.84973">
        <ele>-8.45</ele>
        <time>2017-06-02T08:49:42Z</time>
      </trkpt>
      <trkpt lat="42.61135" lon="8.8494">
        <ele>-8.4</ele>
        <time>2017-06-02T08:49:59Z</time>
      </trkpt>
      <trkpt lat="42.61118" lon="8.84908">
        <ele>-8.33</ele>
        <time>2017-06-02T08:50:14Z</time>
      </trkpt>
      <trkpt lat="42.61101" lon="8.84866">
        <ele>-8.16</ele>
        <time>2017-06-02T08:50:33Z</time>
      </trkpt>
      <trkpt lat="42.61087" lon="8.84827">
        <ele>-8.01</ele>
        <time>2017-06-02T08:50:50Z</time>
      </trkpt>
      <trkpt lat="42.61072" lon="8.84797">
        <ele>-7.84</ele>
        <time>2017-06-02T08:51:07Z</time>
      </trkpt>
      <trkpt lat="42.61055" lon="8.84764">
        <ele>-7.86</ele>
        <time>2017-06-02T08:51:26Z</time>
      </trkpt>
      <trkpt lat="42.61036" lon="8.84728">
        <ele>-7.82</ele>
        <time>2017-06-02T08:51:43Z</time>
      </trkpt>
      <trkpt lat="42.61022" lon="8.84691">
        <ele>-7.9</ele>
        <time>2017-06-02T08:51:59Z</time>
      </trkpt>
      <trkpt lat="42.61009" lon="8.84659">
        <ele>-7.76</ele>
        <time>2017-06-02T08:52:13Z</time>
      </trkpt>
      <trkpt lat="42.60996" lon="8.84629">
        <ele>-7.86</ele>
        <time>2017-06-02T08:52:28Z</time>
      </trkpt>
      <trkpt lat="42.60977" lon="8.8459">
        <ele>-7.78</ele>
        <time>2017-06-02T08:52:46Z</time>
      </trkpt>
      <trkpt lat="42.60962" lon="8.84543">
        <ele>-7.8</ele>
        <time>2017-06-02T08:53:06Z</time>
      </trkpt>
      <trkpt lat="42.6095" lon="8.84498">
        <ele>-7.87</ele>
        <time>2017-06-02T08:53:24Z</time>
      </trkpt>
      <trkpt lat="42.60938" lon="8.8445">
        <ele>-7.83</ele>
        <time>2017-06-02T08:53:43Z</time>
      </trkpt>
      <trkpt lat="42.60924" lon="8.84402">
        <ele>-7.59</ele>
        <time>2017-06-02T08:54:02Z</time>
      </trkpt>
      <trkpt lat="42.60915" lon="8.84359">
        <ele>-7.42</ele>
        <time>2017-06-02T08:54:19Z</time>
      </trkpt>
      <trkpt lat="42.60902" lon="8.84314">
        <ele>-7.48</ele>
        <time>2017-06-02T08:54:37Z</time>
      </trkpt>
      <trkpt lat="42.60883" lon="8.84276">
        <ele>-7.3</ele>
        <time>2017-06-02T08:54:55Z</time>
      </trkpt>
      <trkpt lat="42.60864" lon="8.84243">
        <ele>-7.39</ele>
        <time>2017-06-02T08:55:11Z</time>
      </trkpt>
      <trkpt lat="42.60835" lon="8.84202">
        <ele>-7.09</ele>
        <time>2017-06-02T08:55:32Z</time>
      </trkpt>
      <trkpt lat="42.60816" lon="8.84169">
        <ele>-7.27</ele>
        <time>2017-06-02T08:55:48Z</time>
      </trkpt>
      <trkpt lat="42.60798" lon="8.84122">
        <ele>-7.34</ele>
        <time>2017-06-02T08:56:08Z</time>
      </trkpt>
      <trkpt lat="42.60785" lon="8.84083">
        <ele>-7.19</ele>
        <time>2017-06-02T08:56:24Z</time>
      </trkpt>
      <trkpt lat="42.60774" lon="8.84043">
        <ele>-6.92</ele>
        <time>2017-06-02T08:56:40Z</time>
      </trkpt>
      <trkpt lat="42.60764" lon="8.84001">
        <ele>-6.72</ele>
        <time>2017-06-02T08:56:57Z</time>
      </trkpt>
      <trkpt lat="42.60753" lon="8.83961">
        <ele>-6.62</ele>
        <time>2017-06-02T08:57:15Z</time>
      </trkpt>
      <trkpt lat="42.60742" lon="8.8392">
        <ele>-6.72</ele>
        <time>2017-06-02T08:57:32Z</time>
      </trkpt>
      <trkpt lat="42.60733" lon="8.83876">
        <ele>-6.57</ele>
        <time>2017-06-02T08:57:49Z</time>
      </trkpt>
      <trkpt lat="42.60723" lon="8.83826">
        <ele>-6.51</ele>
        <time>2017-06-02T08:58:09Z</time>
      </trkpt>
      <trkpt lat="42.60711" lon="8.83782">
        <ele>-6.55</ele>
        <time>2017-06-02T08:58:27Z</time>
      </trkpt>
      <trkpt lat="42.607" lon="8.83741">
        <ele>-6.5</ele>
        <time>2017-06-02T08:58:45Z</time>
      </trkpt>
      <trkpt lat="42.60689" lon="8.83706">
        <ele>-5.82</ele>
        <time>2017-06-02T08:59:02Z</time>
      </trkpt>
      <trkpt lat="42.60672" lon="8.83669">
        <ele>-5.86</ele>
        <time>2017-06-02T08:59:20Z</time>
      </trkpt>
      <trkpt lat="42.6066" lon="8.83625">
        <ele>-5.95</ele>
        <time>2017-06-02T08:59:38Z</time>
      </trkpt>
      <trkpt lat="42.60651" lon="8.83578">
        <ele>-5.79</ele>
        <time>2017-06-02T08:59:56Z</time>
      </trkpt>
      <trkpt lat="42.60644" lon="8.83534">
        <ele>-5.56</ele>
        <time>2017-06-02T09:00:13Z</time>
      </trkpt>
      <trkpt lat="42.60643" lon="8.83486">
        <ele>-5.65</ele>
        <time>2017-06-02T09:00:33Z</time>
      </trkpt>
      <trkpt lat="42.60641" lon="8.83434">
        <ele>-5.53</ele>
        <time>2017-06-02T09:00:54Z</time>
      </trkpt>
      <trkpt lat="42.60641" lon="8.83398">
        <ele>-5.29</ele>
        <time>2017-06-02T09:01:12Z</time>
      </trkpt>
      <trkpt lat="42.60642" lon="8.83363">
        <ele>-5.45</ele>
        <time>2017-06-02T09:01:29Z</time>
      </trkpt>
      <trkpt lat="42.60636" lon="8.83325">
        <ele>-5.24</ele>
        <time>2017-06-02T09:01:48Z</time>
      </trkpt>
      <trkpt lat="42.60627" lon="8.83275">
        <ele>-5.38</ele>
        <time>2017-06-02T09:02:09Z</time>
      </trkpt>
      <trkpt lat="42.60619" lon="8.83219">
        <ele>-5.47</ele>
        <time>2017-06-02T09:02:32Z</time>
      </trkpt>
      <trkpt lat="42.6063" lon="8.8319">
        <ele>-5.43</ele>
        <time>2017-06-02T09:02:48Z</time>
      </trkpt>
      <trkpt lat="42.6064" lon="8.83148">
        <ele>-5.71</ele>
        <time>2017-06-02T09:03:07Z</time>
      </trkpt>
      <trkpt lat="42.60644" lon="8.83106">
        <ele>-5.4</ele>
        <time>2017-06-02T09:03:23Z</time>
      </trkpt>
      <trkpt lat="42.60648" lon="8.83065">
        <ele>-5.22</ele>
        <time>2017-06-02T09:03:39Z</time>
      </trkpt>
      <trkpt lat="42.60648" lon="8.8302">
        <ele>-4.99</ele>
        <time>2017-06-02T09:03:56Z</time>
      </trkpt>
      <trkpt lat="42.60652" lon="8.82976">
        <ele>-4.93</ele>
        <time>2017-06-02T09:04:13Z</time>
      </trkpt>
      <trkpt lat="42.60659" lon="8.82929">
        <ele>-4.97</ele>
        <time>2017-06-02T09:04:32Z</time>
      </trkpt>
      <trkpt lat="42.60664" lon="8.82895">
        <ele>-4.63</ele>
        <time>2017-06-02T09:04:48Z</time>
      </trkpt>
      <trkpt lat="42.60666" lon="8.82846">
        <ele>-4.74</ele>
        <time>2017-06-02T09:05:07Z</time>
      </trkpt>
      <trkpt lat="42.60666" lon="8.82798">
        <ele>-4.83</ele>
        <time>2017-06-02T09:05:25Z</time>
      </trkpt>
      <trkpt lat="42.60665" lon="8.82757">
        <ele>-4.48</ele>
        <time>2017-06-02T09:05:42Z</time>
      </trkpt>
      <trkpt lat="42.60671" lon="8.82713">
        <ele>-4.53</ele>
        <time>2017-06-02T09:06:00Z</time>
      </trkpt>
      <trkpt lat="42.60674" lon="8.82676">
        <ele>-4.35</ele>
        <time>2017-06-02T09:06:16Z</time>
      </trkpt>
      <trkpt lat="42.60674" lon="8.82636">
        <ele>-4.24</ele>
        <time>2017-06-02T09:06:33Z</time>
      </trkpt>
      <trkpt lat="42.6067" lon="8.82593">
        <ele>-4.24</ele>
        <time>2017-06-02T09:06:49Z</time>
      </trkpt>
      <trkpt lat="42.60666" lon="8.82549">
        <ele>-4.14</ele>
        <time>2017-06-02T09:07:06Z</time>
      </trkpt>
      <trkpt lat="42.60662" lon="8.82494">
        <ele>-4.12</ele>
        <time>2017-06-02T09:07:27Z</time>
      </trkpt>
      <trkpt lat="42.60664" lon="8.82444">
        <ele>-3.99</ele>
        <time>2017-06-02T09:07:45Z</time>
      </trkpt>
      <trkpt lat="42.60663" lon="8.8238">
        <ele>-4.08</ele>
        <time>2017-06-02T09:08:09Z</time>
      </trkpt>
      <trkpt lat="42.60659" lon="8.82324">
        <ele>-4</ele>
        <time>2017-06-02T09:08:30Z</time>
      </trkpt>
      <trkpt lat="42.60653" lon="8.82278">
        <ele>-3.76</ele>
        <time>2017-06-02T09:08:48Z</time>
      </trkpt>
      <trkpt lat="42.60646" lon="8.82236">
        <ele>-3.55</ele>
        <time>2017-06-02T09:09:04Z</time>
      </trkpt>
      <trkpt lat="42.60637" lon="8.82191">
        <ele>-3.5</ele>
        <time>2017-06-02T09:09:22Z</time>
      </trkpt>
      <trkpt lat="42.60633" lon="8.82152">
        <ele>-3.4</ele>
        <time>2017-06-02T09:09:39Z</time>
      </trkpt>
      <trkpt lat="42.60628" lon="8.82097">
        <ele>-3.27</ele>
        <time>2017-06-02T09:10:00Z</time>
      </trkpt>
      <trkpt lat="42.60622" lon="8.82042">
        <ele>-3.19</ele>
        <time>2017-06-02T09:10:21Z</time>
      </trkpt>
      <trkpt lat="42.60615" lon="8.81994">
        <ele>-3.54</ele>
        <time>2017-06-02T09:10:40Z</time>
      </trkpt>
      <trkpt lat="42.60611" lon="8.81948">
        <ele>-3.15</ele>
        <time>2017-06-02T09:11:00Z</time>
      </trkpt>
      <trkpt lat="42.60602" lon="8.81904">
        <ele>-3.45</ele>
        <time>2017-06-02T09:11:19Z</time>
      </trkpt>
      <trkpt lat="42.60594" lon="8.8186">
        <ele>-3.17</ele>
        <time>2017-06-02T09:11:36Z</time>
      </trkpt>
      <trkpt lat="42.60587" lon="8.81816">
        <ele>-3.2</ele>
        <time>2017-06-02T09:11:54Z</time>
      </trkpt>
      <trkpt lat="42.6058" lon="8.81771">
        <ele>-3.35</ele>
        <time>2017-06-02T09:12:13Z</time>
      </trkpt>
      <trkpt lat="42.6057" lon="8.81725">
        <ele>-3.06</ele>
        <time>2017-06-02T09:12:31Z</time>
      </trkpt>
      <trkpt lat="42.60559" lon="8.81678">
        <ele>-3.06</ele>
        <time>2017-06-02T09:12:50Z</time>
      </trkpt>
      <trkpt lat="42.60552" lon="8.81631">
        <ele>-2.97</ele>
        <time>2017-06-02T09:13:09Z</time>
      </trkpt>
      <trkpt lat="42.60548" lon="8.8158">
        <ele>-3.09</ele>
        <time>2017-06-02T09:13:29Z</time>
      </trkpt>
      <trkpt lat="42.60541" lon="8.8153">
        <ele>-3.12</ele>
        <time>2017-06-02T09:13:48Z</time>
      </trkpt>
      <trkpt lat="42.60535" lon="8.81482">
        <ele>-3.43</ele>
        <time>2017-06-02T09:14:06Z</time>
      </trkpt>
      <trkpt lat="42.60531" lon="8.81436">
        <ele>-3.06</ele>
        <time>2017-06-02T09:14:23Z</time>
      </trkpt>
      <trkpt lat="42.60526" lon="8.81397">
        <ele>-3.07</ele>
        <time>2017-06-02T09:14:38Z</time>
      </trkpt>
      <trkpt lat="42.60518" lon="8.81342">
        <ele>-3.04</ele>
        <time>2017-06-02T09:14:59Z</time>
      </trkpt>
      <trkpt lat="42.60513" lon="8.81293">
        <ele>-3.03</ele>
        <time>2017-06-02T09:15:20Z</time>
      </trkpt>
      <trkpt lat="42.60505" lon="8.81235">
        <ele>-2.85</ele>
        <time>2017-06-02T09:15:42Z</time>
      </trkpt>
      <trkpt lat="42.60504" lon="8.81187">
        <ele>-2.85</ele>
        <time>2017-06-02T09:16:00Z</time>
      </trkpt>
      <trkpt lat="42.60503" lon="8.81143">
        <ele>-2.74</ele>
        <time>2017-06-02T09:16:19Z</time>
      </trkpt>
      <trkpt lat="42.60504" lon="8.81108">
        <ele>-2.6</ele>
        <time>2017-06-02T09:16:38Z</time>
      </trkpt>
      <trkpt lat="42.60498" lon="8.8106">
        <ele>-2.56</ele>
        <time>2017-06-02T09:17:01Z</time>
      </trkpt>
      <trkpt lat="42.60493" lon="8.81011">
        <ele>-2.88</ele>
        <time>2017-06-02T09:17:20Z</time>
      </trkpt>
      <trkpt lat="42.60486" lon="8.80965">
        <ele>-2.63</ele>
        <time>2017-06-02T09:17:38Z</time>
      </trkpt>
      <trkpt lat="42.60481" lon="8.80921">
        <ele>-2.74</ele>
        <time>2017-06-02T09:17:56Z</time>
      </trkpt>
      <trkpt lat="42.60473" lon="8.80868">
        <ele>-2.54</ele>
        <time>2017-06-02T09:18:17Z</time>
      </trkpt>
      <trkpt lat="42.60465" lon="8.80827">
        <ele>-2.58</ele>
        <time>2017-06-02T09:18:33Z</time>
      </trkpt>
      <trkpt lat="42.6046" lon="8.80782">
        <ele>-2.34</ele>
        <time>2017-06-02T09:18:50Z</time>
      </trkpt>
      <trkpt lat="42.60449" lon="8.80732">
        <ele>-2.05</ele>
        <time>2017-06-02T09:19:09Z</time>
      </trkpt>
      <trkpt lat="42.60436" lon="8.80688">
        <ele>-2.4</ele>
        <time>2017-06-02T09:19:27Z</time>
      </trkpt>
      <trkpt lat="42.60424" lon="8.80647">
        <ele>-2.39</ele>
        <time>2017-06-02T09:19:43Z</time>
      </trkpt>
      <trkpt lat="42.60412" lon="8.80592">
        <ele>-2.3</ele>
        <time>2017-06-02T09:20:03Z</time>
      </trkpt>
      <trkpt lat="42.60397" lon="8.8055">
        <ele>-2.35</ele>
        <time>2017-06-02T09:20:21Z</time>
      </trkpt>
      <trkpt lat="42.60377" lon="8.80508">
        <ele>-2.32</ele>
        <time>2017-06-02T09:20:39Z</time>
      </trkpt>
      <trkpt lat="42.60356" lon="8.80465">
        <ele>-2.1</ele>
        <time>2017-06-02T09:20:57Z</time>
      </trkpt>
      <trkpt lat="42.60338" lon="8.80425">
        <ele>-2.21</ele>
        <time>2017-06-02T09:21:14Z</time>
      </trkpt>
      <trkpt lat="42.60322" lon="8.80378">
        <ele>-2.13</ele>
        <time>2017-06-02T09:21:32Z</time>
      </trkpt>
      <trkpt lat="42.60315" lon="8.80363">
        <ele>-1.52</ele>
        <time>2017-06-02T09:21:47Z</time>
      </trkpt>
      <trkpt lat="42.60308" lon="8.8036">
        <ele>-1.97</ele>
        <time>2017-06-02T09:22:19Z</time>
      </trkpt>
      <trkpt lat="42.60304" lon="8.80355">
        <ele>-1.87</ele>
        <time>2017-06-02T09:22:27Z</time>
      </trkpt>
      <trkpt lat="42.60288" lon="8.80313">
        <ele>-2.27</ele>
        <time>2017-06-02T09:22:49Z</time>
      </trkpt>
      <trkpt lat="42.60267" lon="8.80266">
        <ele>-2.24</ele>
        <time>2017-06-02T09:23:09Z</time>
      </trkpt>
      <trkpt lat="42.60241" lon="8.80221">
        <ele>-2.08</ele>
        <time>2017-06-02T09:23:30Z</time>
      </trkpt>
      <trkpt lat="42.60231" lon="8.80202">
        <ele>-1.94</ele>
        <time>2017-06-02T09:23:47Z</time>
      </trkpt>
      <trkpt lat="42.60225" lon="8.80186">
        <ele>-2.08</ele>
        <time>2017-06-02T09:24:18Z</time>
      </trkpt>
      <trkpt lat="42.60201" lon="8.80158">
        <ele>-2.08</ele>
        <time>2017-06-02T09:24:38Z</time>
      </trkpt>
      <trkpt lat="42.6017" lon="8.80138">
        <ele>-2.17</ele>
        <time>2017-06-02T09:24:56Z</time>
      </trkpt>
      <trkpt lat="42.6015" lon="8.80129">
        <ele>-2.2</ele>
        <time>2017-06-02T09:25:07Z</time>
      </trkpt>
      <trkpt lat="42.60118" lon="8.80117">
        <ele>-2.2</ele>
        <time>2017-06-02T09:25:23Z</time>
      </trkpt>
      <trkpt lat="42.60086" lon="8.80116">
        <ele>-2.05</ele>
        <time>2017-06-02T09:25:41Z</time>
      </trkpt>
      <trkpt lat="42.60054" lon="8.80129">
        <ele>-1.85</ele>
        <time>2017-06-02T09:26:00Z</time>
      </trkpt>
      <trkpt lat="42.60026" lon="8.80141">
        <ele>-2.09</ele>
        <time>2017-06-02T09:26:18Z</time>
      </trkpt>
      <trkpt lat="42.60002" lon="8.80145">
        <ele>-2.09</ele>
        <time>2017-06-02T09:26:36Z</time>
      </trkpt>
      <trkpt lat="42.59979" lon="8.80159">
        <ele>-1.61</ele>
        <time>2017-06-02T09:26:53Z</time>
      </trkpt>
      <trkpt lat="42.59952" lon="8.8017">
        <ele>-1.97</ele>
        <time>2017-06-02T09:27:07Z</time>
      </trkpt>
      <trkpt lat="42.59918" lon="8.80176">
        <ele>-1.77</ele>
        <time>2017-06-02T09:27:23Z</time>
      </trkpt>
      <trkpt lat="42.59881" lon="8.80192">
        <ele>-1.61</ele>
        <time>2017-06-02T09:27:40Z</time>
      </trkpt>
      <trkpt lat="42.59848" lon="8.80211">
        <ele>-1.53</ele>
        <time>2017-06-02T09:27:58Z</time>
      </trkpt>
      <trkpt lat="42.59814" lon="8.80234">
        <ele>-1.6</ele>
        <time>2017-06-02T09:28:15Z</time>
      </trkpt>
      <trkpt lat="42.59777" lon="8.80247">
        <ele>-1.62</ele>
        <time>2017-06-02T09:28:32Z</time>
      </trkpt>
      <trkpt lat="42.59735" lon="8.80264">
        <ele>-1.39</ele>
        <time>2017-06-02T09:28:51Z</time>
      </trkpt>
      <trkpt lat="42.59698" lon="8.80282">
        <ele>-1.23</ele>
        <time>2017-06-02T09:29:08Z</time>
      </trkpt>
      <trkpt lat="42.59661" lon="8.80299">
        <ele>-1.56</ele>
        <time>2017-06-02T09:29:25Z</time>
      </trkpt>
      <trkpt lat="42.59619" lon="8.80307">
        <ele>-1.41</ele>
        <time>2017-06-02T09:29:43Z</time>
      </trkpt>
      <trkpt lat="42.59575" lon="8.80312">
        <ele>-1.26</ele>
        <time>2017-06-02T09:30:02Z</time>
      </trkpt>
      <trkpt lat="42.59538" lon="8.80317">
        <ele>-1.14</ele>
        <time>2017-06-02T09:30:18Z</time>
      </trkpt>
      <trkpt lat="42.59505" lon="8.80319">
        <ele>-0.81</ele>
        <time>2017-06-02T09:30:33Z</time>
      </trkpt>
      <trkpt lat="42.59467" lon="8.80315">
        <ele>-0.81</ele>
        <time>2017-06-02T09:30:49Z</time>
      </trkpt>
      <trkpt lat="42.59433" lon="8.80311">
        <ele>-1.02</ele>
        <time>2017-06-02T09:31:04Z</time>
      </trkpt>
      <trkpt lat="42.59389" lon="8.80312">
        <ele>-0.8</ele>
        <time>2017-06-02T09:31:23Z</time>
      </trkpt>
      <trkpt lat="42.59351" lon="8.80308">
        <ele>-0.91</ele>
        <time>2017-06-02T09:31:39Z</time>
      </trkpt>
      <trkpt lat="42.59309" lon="8.80299">
        <ele>-0.74</ele>
        <time>2017-06-02T09:31:57Z</time>
      </trkpt>
      <trkpt lat="42.59277" lon="8.80286">
        <ele>-0.86</ele>
        <time>2017-06-02T09:32:11Z</time>
      </trkpt>
      <trkpt lat="42.5924" lon="8.80276">
        <ele>-0.6</ele>
        <time>2017-06-02T09:32:27Z</time>
      </trkpt>
      <trkpt lat="42.59206" lon="8.80266">
        <ele>-0.45</ele>
        <time>2017-06-02T09:32:42Z</time>
      </trkpt>
      <trkpt lat="42.59169" lon="8.80252">
        <ele>-0.83</ele>
        <time>2017-06-02T09:32:58Z</time>
      </trkpt>
      <trkpt lat="42.59138" lon="8.80242">
        <ele>-0.69</ele>
        <time>2017-06-02T09:33:12Z</time>
      </trkpt>
      <trkpt lat="42.59106" lon="8.8023">
        <ele>-0.88</ele>
        <time>2017-06-02T09:33:26Z</time>
      </trkpt>
      <trkpt lat="42.59068" lon="8.80214">
        <ele>-0.55</ele>
        <time>2017-06-02T09:33:43Z</time>
      </trkpt>
      <trkpt lat="42.59037" lon="8.80204">
        <ele>-0.49</ele>
        <time>2017-06-02T09:33:57Z</time>
      </trkpt>
      <trkpt lat="42.58997" lon="8.8019">
        <ele>-0.47</ele>
        <time>2017-06-02T09:34:15Z</time>
      </trkpt>
      <trkpt lat="42.58961" lon="8.80173">
        <ele>-0.61</ele>
        <time>2017-06-02T09:34:31Z</time>
      </trkpt>
      <trkpt lat="42.58929" lon="8.8017">
        <ele>-0.5</ele>
        <time>2017-06-02T09:34:45Z</time>
      </trkpt>
      <trkpt lat="42.58882" lon="8.80178">
        <ele>-0.73</ele>
        <time>2017-06-02T09:35:04Z</time>
      </trkpt>
      <trkpt lat="42.58839" lon="8.8019">
        <ele>-0.24</ele>
        <time>2017-06-02T09:35:23Z</time>
      </trkpt>
      <trkpt lat="42.58828" lon="8.80194">
        <ele>-0.41</ele>
        <time>2017-06-02T09:35:30Z</time>
      </trkpt>
      <trkpt lat="42.58819" lon="8.80196">
        <ele>-0.48</ele>
        <time>2017-06-02T09:35:35Z</time>
      </trkpt>
      <trkpt lat="42.58791" lon="8.80195">
        <ele>-0.19</ele>
        <time>2017-06-02T09:35:51Z</time>
      </trkpt>
      <trkpt lat="42.58782" lon="8.80197">
        <ele>-0.15</ele>
        <time>2017-06-02T09:35:58Z</time>
      </trkpt>
      <trkpt lat="42.58759" lon="8.80194">
        <ele>-0.1</ele>
        <time>2017-06-02T09:36:17Z</time>
      </trkpt>
      <trkpt lat="42.58734" lon="8.80183">
        <ele>-0.21</ele>
        <time>2017-06-02T09:36:32Z</time>
      </trkpt>
      <trkpt lat="42.58705" lon="8.80177">
        <ele>0.03</ele>
        <time>2017-06-02T09:36:48Z</time>
      </trkpt>
      <trkpt lat="42.58683" lon="8.80173">
        <ele>0.08</ele>
        <time>2017-06-02T09:37:00Z</time>
      </trkpt>
      <trkpt lat="42.58654" lon="8.80167">
        <ele>-0.04</ele>
        <time>2017-06-02T09:37:17Z</time>
      </trkpt>
      <trkpt lat="42.58629" lon="8.80161">
        <ele>0.01</ele>
        <time>2017-06-02T09:37:31Z</time>
      </trkpt>
      <trkpt lat="42.58606" lon="8.80153">
        <time>2017-06-02T09:37:44Z</time>
      </trkpt>
      <trkpt lat="42.58574" lon="8.80138">
        <ele>-0.12</ele>
        <time>2017-06-02T09:38:02Z</time>
      </trkpt>
      <trkpt lat="42.58542" lon="8.80125">
        <ele>-0.06</ele>
        <time>2017-06-02T09:38:18Z</time>
      </trkpt>
      <trkpt lat="42.58515" lon="8.80113">
        <ele>0.02</ele>
        <time>2017-06-02T09:38:34Z</time>
      </trkpt>
      <trkpt lat="42.58493" lon="8.80112">
        <ele>0.17</ele>
        <time>2017-06-02T09:38:47Z</time>
      </trkpt>
      <trkpt lat="42.58469" lon="8.80129">
        <ele>0.07</ele>
        <time>2017-06-02T09:39:03Z</time>
      </trkpt>
      <trkpt lat="42.58461" lon="8.80143">
        <ele>0.28</ele>
        <time>2017-06-02T09:39:14Z</time>
      </trkpt>
      <trkpt lat="42.58456" lon="8.80156">
        <ele>0.35</ele>
        <time>2017-06-02T09:39:32Z</time>
      </trkpt>
      <trkpt lat="42.58457" lon="8.80158">
        <ele>-0.29</ele>
        <time>2017-06-02T09:39:53Z</time>
      </trkpt>
      <trkpt lat="42.5846" lon="8.80164">
        <ele>1.12</ele>
        <time>2017-06-02T09:40:18Z</time>
      </trkpt>
      <trkpt lat="42.58464" lon="8.80176">
        <ele>1.57</ele>
        <time>2017-06-02T09:40:49Z</time>
      </trkpt>
      <trkpt lat="42.58463" lon="8.80172">
        <ele>1.32</ele>
        <time>2017-06-02T09:41:14Z</time>
      </trkpt>
      <trkpt lat="42.58463" lon="8.80172">
        <ele>0.95</ele>
        <time>2017-06-02T09:41:39Z</time>
      </trkpt>
      <trkpt lat="42.58462" lon="8.80172">
        <ele>1.03</ele>
        <time>2017-06-02T09:42:06Z</time>
      </trkpt>
      <trkpt lat="42.58462" lon="8.80172">
        <ele>0.97</ele>
        <time>2017-06-02T09:42:33Z</time>
      </trkpt>
      <trkpt lat="42.58462" lon="8.80171">
        <ele>1.28</ele>
        <time>2017-06-02T09:42:57Z</time>
      </trkpt>
      <trkpt lat="42.58462" lon="8.80172">
        <ele>1.18</ele>
        <time>2017-06-02T09:43:28Z</time>
      </trkpt>
      <trkpt lat="42.58461" lon="8.80172">
        <ele>1.19</ele>
        <time>2017-06-02T09:43:50Z</time>
      </trkpt>
      <trkpt lat="42.58463" lon="8.80171">
        <ele>1.07</ele>
        <time>2017-06-02T09:44:14Z</time>
      </trkpt>
      <trkpt lat="42.58463" lon="8.80172">
        <ele>0.81</ele>
        <time>2017-06-02T09:44:35Z</time>
      </trkpt>
      <trkpt lat="42.58464" lon="8.80173">
        <ele>1.11</ele>
        <time>2017-06-02T09:45:04Z</time>
      </trkpt>
      <trkpt lat="42.58465" lon="8.80173">
        <ele>1.03</ele>
        <time>2017-06-02T09:45:23Z</time>
      </trkpt>
      <trkpt lat="42.58464" lon="8.80173">
        <ele>1.06</ele>
        <time>2017-06-02T09:45:49Z</time>
      </trkpt>
      <trkpt lat="42.58466" lon="8.80173">
        <ele>1.04</ele>
        <time>2017-06-02T09:46:10Z</time>
      </trkpt>
      <trkpt lat="42.58465" lon="8.80172">
        <ele>0.69</ele>
        <time>2017-06-02T09:46:33Z</time>
      </trkpt>
      <trkpt lat="42.58464" lon="8.80177">
        <ele>0.83</ele>
        <time>2017-06-02T09:46:51Z</time>
      </trkpt>
      <trkpt lat="42.58462" lon="8.80175">
        <ele>1.05</ele>
        <time>2017-06-02T09:47:10Z</time>
      </trkpt>
      <trkpt lat="42.58463" lon="8.80176">
        <ele>0.83</ele>
        <time>2017-06-02T09:47:29Z</time>
      </trkpt>
      <trkpt lat="42.58463" lon="8.80176">
        <ele>0.21</ele>
        <time>2017-06-02T09:47:52Z</time>
      </trkpt>
      <trkpt lat="42.58462" lon="8.80176">
        <ele>0.26</ele>
        <time>2017-06-02T09:48:19Z</time>
      </trkpt>
      <trkpt lat="42.58463" lon="8.80175">
        <ele>0.19</ele>
        <time>2017-06-02T09:48:53Z</time>
      </trkpt>
      <trkpt lat="42.58464" lon="8.80175">
        <ele>0.11</ele>
        <time>2017-06-02T09:49:12Z</time>
      </trkpt>
      <trkpt lat="42.58463" lon="8.80174">
        <ele>-0.03</ele>
        <time>2017-06-02T09:49:36Z</time>
      </trkpt>
      <trkpt lat="42.58463" lon="8.80175">
        <ele>-0.21</ele>
        <time>2017-06-02T09:50:00Z</time>
      </trkpt>
      <trkpt lat="42.58463" lon="8.80174">
        <ele>-0.1</ele>
        <time>2017-06-02T09:50:22Z</time>
      </trkpt>
      <trkpt lat="42.58464" lon="8.80173">
        <ele>-0.16</ele>
        <time>2017-06-02T09:50:45Z</time>
      </trkpt>
      <trkpt lat="42.58464" lon="8.80173">
        <ele>-0.07</ele>
        <time>2017-06-02T09:51:05Z</time>
      </trkpt>
      <trkpt lat="42.58464" lon="8.80174">
        <ele>1</ele>
        <time>2017-06-02T09:51:31Z</time>
      </trkpt>
      <trkpt lat="42.58463" lon="8.80173">
        <ele>0.04</ele>
        <time>2017-06-02T09:51:48Z</time>
      </trkpt>
      <trkpt lat="42.58464" lon="8.80173">
        <ele>-0.23</ele>
        <time>2017-06-02T09:52:05Z</time>
      </trkpt>
      <trkpt lat="42.58464" lon="8.80173">
        <ele>-0.21</ele>
        <time>2017-06-02T09:52:23Z</time>
      </trkpt>
      <trkpt lat="42.58464" lon="8.80173">
        <ele>-0.36</ele>
        <time>2017-06-02T09:52:43Z</time>
      </trkpt>
      <trkpt lat="42.58464" lon="8.80173">
        <ele>-0.19</ele>
        <time>2017-06-02T09:53:00Z</time>
      </trkpt>
      <trkpt lat="42.58464" lon="8.80172">
        <ele>-0.4</ele>
        <time>2017-06-02T09:53:17Z</time>
      </trkpt>
      <trkpt lat="42.58464" lon="8.80172">
        <ele>-0.33</ele>
        <time>2017-06-02T09:53:35Z</time>
      </trkpt>
      <trkpt lat="42.58464" lon="8.80174">
        <ele>-0.3</ele>
        <time>2017-06-02T09:53:53Z</time>
      </trkpt>
      <trkpt lat="42.58463" lon="8.80175">
        <ele>-0.3</ele>
        <time>2017-06-02T09:54:18Z</time>
      </trkpt>
      <trkpt lat="42.58462" lon="8.80175">
        <ele>-0.54</ele>
        <time>2017-06-02T09:54:43Z</time>
      </trkpt>
      <trkpt lat="42.58462" lon="8.80175">
        <ele>-0.48</ele>
        <time>2017-06-02T09:55:16Z</time>
      </trkpt>
      <trkpt lat="42.58463" lon="8.80174">
        <ele>-0.6</ele>
        <time>2017-06-02T09:55:57Z</time>
      </trkpt>
      <trkpt lat="42.58463" lon="8.80175">
        <ele>-0.34</ele>
        <time>2017-06-02T09:56:26Z</time>
      </trkpt>
      <trkpt lat="42.58463" lon="8.80175">
        <ele>-0.46</ele>
        <time>2017-06-02T09:57:07Z</time>
      </trkpt>
      <trkpt lat="42.58463" lon="8.80174">
        <ele>-0.57</ele>
        <time>2017-06-02T09:57:34Z</time>
      </trkpt>
      <trkpt lat="42.58462" lon="8.80174">
        <ele>-0.55</ele>
        <time>2017-06-02T09:58:01Z</time>
      </trkpt>
      <trkpt lat="42.58462" lon="8.80174">
        <ele>-0.38</ele>
        <time>2017-06-02T09:58:22Z</time>
      </trkpt>
      <trkpt lat="42.58462" lon="8.80174">
        <ele>-0.48</ele>
        <time>2017-06-02T09:58:46Z</time>
      </trkpt>
      <trkpt lat="42.58462" lon="8.80174">
        <ele>-0.51</ele>
        <time>2017-06-02T09:59:05Z</time>
      </trkpt>
      <trkpt lat="42.58462" lon="8.80174">
        <ele>-0.53</ele>
        <time>2017-06-02T09:59:26Z</time>
      </trkpt>
      <trkpt lat="42.58462" lon="8.80175">
        <ele>-0.35</ele>
        <time>2017-06-02T09:59:49Z</time>
      </trkpt>
      <trkpt lat="42.58462" lon="8.80176">
        <ele>-0.37</ele>
        <time>2017-06-02T10:00:23Z</time>
      </trkpt>
      <trkpt lat="42.58462" lon="8.80174">
        <ele>-0.7</ele>
        <time>2017-06-02T10:00:51Z</time>
      </trkpt>
      <trkpt lat="42.58463" lon="8.80174">
        <ele>-0.23</ele>
        <time>2017-06-02T10:01:23Z</time>
      </trkpt>
      <trkpt lat="42.58463" lon="8.80173">
        <ele>-0.31</ele>
        <time>2017-06-02T10:01:45Z</time>
      </trkpt>
      <trkpt lat="42.58463" lon="8.80173">
        <ele>-0.32</ele>
        <time>2017-06-02T10:02:15Z</time>
      </trkpt>
      <trkpt lat="42.58462" lon="8.80173">
        <ele>-0.23</ele>
        <time>2017-06-02T10:02:50Z</time>
      </trkpt>
      <trkpt lat="42.58462" lon="8.80174">
        <ele>-0.35</ele>
        <time>2017-06-02T10:03:17Z</time>
      </trkpt>
      <trkpt lat="42.58462" lon="8.80174">
        <ele>-0.45</ele>
        <time>2017-06-02T10:03:44Z</time>
      </trkpt>
      <trkpt lat="42.58462" lon="8.80174">
        <ele>-0.33</ele>
        <time>2017-06-02T10:04:16Z</time>
      </trkpt>
      <trkpt lat="42.58462" lon="8.80175">
        <ele>-0.08</ele>
        <time>2017-06-02T10:04:41Z</time>
      </trkpt>
      <trkpt lat="42.58462" lon="8.80175">
        <ele>-0.41</ele>
        <time>2017-06-02T10:05:05Z</time>
      </trkpt>
      <trkpt lat="42.58462" lon="8.80174">
        <ele>-0.27</ele>
        <time>2017-06-02T10:05:34Z</time>
      </trkpt>
      <trkpt lat="42.58462" lon="8.80174">
        <ele>-0.6</ele>
        <time>2017-06-02T10:06:02Z</time>
      </trkpt>
      <trkpt lat="42.58463" lon="8.80176">
        <ele>1</ele>
        <time>2017-06-02T10:06:32Z</time>
      </trkpt>
      <trkpt lat="42.58464" lon="8.80177">
        <ele>0.3</ele>
        <time>2017-06-02T10:07:02Z</time>
      </trkpt>
      <trkpt lat="42.58465" lon="8.80178">
        <ele>0.12</ele>
        <time>2017-06-02T10:07:28Z</time>
      </trkpt>
      <trkpt lat="42.58465" lon="8.80177">
        <ele>0.02</ele>
        <time>2017-06-02T10:07:54Z</time>
      </trkpt>
      <trkpt lat="42.58463" lon="8.80176">
        <ele>-0.01</ele>
        <time>2017-06-02T10:08:25Z</time>
      </trkpt>
      <trkpt lat="42.58464" lon="8.80173">
        <ele>-0.42</ele>
        <time>2017-06-02T10:08:47Z</time>
      </trkpt>
      <trkpt lat="42.58465" lon="8.80172">
        <ele>-0.61</ele>
        <time>2017-06-02T10:09:20Z</time>
      </trkpt>
      <trkpt lat="42.58466" lon="8.80171">
        <ele>-0.65</ele>
        <time>2017-06-02T10:09:56Z</time>
      </trkpt>
      <trkpt lat="42.58467" lon="8.80174">
        <ele>-0.5</ele>
        <time>2017-06-02T10:10:55Z</time>
      </trkpt>
      <trkpt lat="42.58465" lon="8.80175">
        <ele>-0.36</ele>
        <time>2017-06-02T10:11:44Z</time>
      </trkpt>
      <trkpt lat="42.58465" lon="8.80177">
        <ele>-0.33</ele>
        <time>2017-06-02T10:12:23Z</time>
      </trkpt>
      <trkpt lat="42.58464" lon="8.80179">
        <ele>-0.45</ele>
        <time>2017-06-02T10:13:16Z</time>
      </trkpt>
      <trkpt lat="42.58464" lon="8.80181">
        <ele>-0.51</ele>
        <time>2017-06-02T10:14:28Z</time>
      </trkpt>
      <trkpt lat="42.58465" lon="8.8018">
        <ele>-0.48</ele>
        <time>2017-06-02T10:15:48Z</time>
      </trkpt>
      <trkpt lat="42.58465" lon="8.80178">
        <ele>-0.72</ele>
        <time>2017-06-02T10:16:22Z</time>
      </trkpt>
      <trkpt lat="42.58464" lon="8.80176">
        <ele>-0.41</ele>
        <time>2017-06-02T10:16:52Z</time>
      </trkpt>
      <trkpt lat="42.58465" lon="8.80174">
        <ele>-0.27</ele>
        <time>2017-06-02T10:17:21Z</time>
      </trkpt>
      <trkpt lat="42.58465" lon="8.80174">
        <ele>-0.26</ele>
        <time>2017-06-02T10:17:51Z</time>
      </trkpt>
      <trkpt lat="42.58464" lon="8.80174">
        <ele>-0.04</ele>
        <time>2017-06-02T10:18:28Z</time>
      </trkpt>
      <trkpt lat="42.58465" lon="8.80174">
        <ele>1</ele>
        <time>2017-06-02T10:19:01Z</time>
      </trkpt>
      <trkpt lat="42.58464" lon="8.80174">
        <ele>0.27</ele>
        <time>2017-06-02T10:19:28Z</time>
      </trkpt>
      <trkpt lat="42.58464" lon="8.80174">
        <ele>-0.11</ele>
        <time>2017-06-02T10:19:59Z</time>
      </trkpt>
      <trkpt lat="42.58463" lon="8.80174">
        <ele>0.22</ele>
        <time>2017-06-02T10:20:25Z</time>
      </trkpt>
      <trkpt lat="42.58464" lon="8.80174">
        <ele>0.16</ele>
        <time>2017-06-02T10:21:00Z</time>
      </trkpt>
      <trkpt lat="42.58465" lon="8.80174">
        <ele>0.1</ele>
        <time>2017-06-02T10:21:33Z</time>
      </trkpt>
      <trkpt lat="42.58463" lon="8.80173">
        <ele>0.26</ele>
        <time>2017-06-02T10:22:01Z</time>
      </trkpt>
      <trkpt lat="42.58465" lon="8.80171">
        <ele>1.53</ele>
        <time>2017-06-02T10:22:20Z</time>
      </trkpt>
      <trkpt lat="42.58466" lon="8.80171">
        <ele>1.36</ele>
        <time>2017-06-02T10:22:40Z</time>
      </trkpt>
      <trkpt lat="42.58466" lon="8.8017">
        <ele>1.45</ele>
        <time>2017-06-02T10:23:02Z</time>
      </trkpt>
      <trkpt lat="42.58466" lon="8.80169">
        <ele>1.3</ele>
        <time>2017-06-02T10:23:30Z</time>
      </trkpt>
      <trkpt lat="42.58465" lon="8.80169">
        <ele>1.12</ele>
        <time>2017-06-02T10:23:49Z</time>
      </trkpt>
      <trkpt lat="42.58465" lon="8.80168">
        <ele>1.14</ele>
        <time>2017-06-02T10:24:09Z</time>
      </trkpt>
      <trkpt lat="42.58464" lon="8.80168">
        <ele>1.11</ele>
        <time>2017-06-02T10:24:33Z</time>
      </trkpt>
      <trkpt lat="42.58464" lon="8.80168">
        <ele>1.14</ele>
        <time>2017-06-02T10:24:55Z</time>
      </trkpt>
      <trkpt lat="42.58465" lon="8.8017">
        <ele>0.76</ele>
        <time>2017-06-02T10:25:18Z</time>
      </trkpt>
      <trkpt lat="42.58465" lon="8.8017">
        <ele>0.74</ele>
        <time>2017-06-02T10:25:40Z</time>
      </trkpt>
      <trkpt lat="42.58465" lon="8.80171">
        <ele>0.87</ele>
        <time>2017-06-02T10:26:03Z</time>
      </trkpt>
      <trkpt lat="42.58464" lon="8.8017">
        <ele>0.59</ele>
        <time>2017-06-02T10:26:28Z</time>
      </trkpt>
      <trkpt lat="42.58464" lon="8.8017">
        <ele>0.64</ele>
        <time>2017-06-02T10:26:53Z</time>
      </trkpt>
      <trkpt lat="42.58463" lon="8.8017">
        <ele>0.76</ele>
        <time>2017-06-02T10:27:19Z</time>
      </trkpt>
      <trkpt lat="42.58464" lon="8.80171">
        <ele>0.37</ele>
        <time>2017-06-02T10:27:53Z</time>
      </trkpt>
      <trkpt lat="42.58464" lon="8.80171">
        <ele>0.27</ele>
        <time>2017-06-02T10:28:28Z</time>
      </trkpt>
      <trkpt lat="42.58463" lon="8.8017">
        <ele>0.24</ele>
        <time>2017-06-02T10:29:01Z</time>
      </trkpt>
      <trkpt lat="42.58463" lon="8.80169">
        <ele>0.11</ele>
        <time>2017-06-02T10:29:29Z</time>
      </trkpt>
      <trkpt lat="42.58463" lon="8.8017">
        <ele>0.16</ele>
        <time>2017-06-02T10:29:57Z</time>
      </trkpt>
      <trkpt lat="42.58462" lon="8.8017">
        <ele>0.02</ele>
        <time>2017-06-02T10:30:21Z</time>
      </trkpt>
      <trkpt lat="42.58462" lon="8.8017">
        <ele>1</ele>
        <time>2017-06-02T10:30:43Z</time>
      </trkpt>
      <trkpt lat="42.58462" lon="8.8017">
        <ele>-0.12</ele>
        <time>2017-06-02T10:31:01Z</time>
      </trkpt>
      <trkpt lat="42.58463" lon="8.8017">
        <ele>-0.21</ele>
        <time>2017-06-02T10:31:26Z</time>
      </trkpt>
      <trkpt lat="42.58463" lon="8.80171">
        <ele>-0.17</ele>
        <time>2017-06-02T10:31:51Z</time>
      </trkpt>
      <trkpt lat="42.58463" lon="8.80172">
        <ele>-0.27</ele>
        <time>2017-06-02T10:32:19Z</time>
      </trkpt>
      <trkpt lat="42.58463" lon="8.80172">
        <ele>-0.25</ele>
        <time>2017-06-02T10:32:43Z</time>
      </trkpt>
      <trkpt lat="42.58463" lon="8.80171">
        <ele>-0.42</ele>
        <time>2017-06-02T10:33:06Z</time>
      </trkpt>
      <trkpt lat="42.58463" lon="8.80171">
        <ele>-0.58</ele>
        <time>2017-06-02T10:33:26Z</time>
      </trkpt>
      <trkpt lat="42.58463" lon="8.8017">
        <ele>-0.47</ele>
        <time>2017-06-02T10:33:47Z</time>
      </trkpt>
      <trkpt lat="42.58463" lon="8.8017">
        <ele>-0.49</ele>
        <time>2017-06-02T10:34:08Z</time>
      </trkpt>
      <trkpt lat="42.58463" lon="8.8017">
        <ele>-0.53</ele>
        <time>2017-06-02T10:34:32Z</time>
      </trkpt>
      <trkpt lat="42.58462" lon="8.8017">
        <ele>-0.46</ele>
        <time>2017-06-02T10:34:51Z</time>
      </trkpt>
      <trkpt lat="42.58462" lon="8.8017">
        <ele>-0.62</ele>
        <time>2017-06-02T10:35:13Z</time>
      </trkpt>
      <trkpt lat="42.58462" lon="8.80169">
        <ele>-0.33</ele>
        <time>2017-06-02T10:35:36Z</time>
      </trkpt>
      <trkpt lat="42.58463" lon="8.80169">
        <ele>-0.47</ele>
        <time>2017-06-02T10:35:59Z</time>
      </trkpt>
      <trkpt lat="42.58463" lon="8.80171">
        <ele>-0.44</ele>
        <time>2017-06-02T10:36:26Z</time>
      </trkpt>
      <trkpt lat="42.58463" lon="8.80172">
        <ele>-0.55</ele>
        <time>2017-06-02T10:36:45Z</time>
      </trkpt>
      <trkpt lat="42.58463" lon="8.80171">
        <ele>-0.69</ele>
        <time>2017-06-02T10:37:05Z</time>
      </trkpt>
      <trkpt lat="42.58463" lon="8.8017">
        <ele>-0.18</ele>
        <time>2017-06-02T10:37:23Z</time>
      </trkpt>
      <trkpt lat="42.58463" lon="8.80171">
        <ele>-0.23</ele>
        <time>2017-06-02T10:37:42Z</time>
      </trkpt>
      <trkpt lat="42.58463" lon="8.80172">
        <ele>-0.19</ele>
        <time>2017-06-02T10:38:05Z</time>
      </trkpt>
      <trkpt lat="42.58463" lon="8.80172">
        <ele>-0.24</ele>
        <time>2017-06-02T10:38:25Z</time>
      </trkpt>
      <trkpt lat="42.58463" lon="8.8017">
        <ele>-0.06</ele>
        <time>2017-06-02T10:38:45Z</time>
      </trkpt>
      <trkpt lat="42.58462" lon="8.8017">
        <ele>-0.09</ele>
        <time>2017-06-02T10:39:03Z</time>
      </trkpt>
      <trkpt lat="42.58461" lon="8.80171">
        <ele>0.09</ele>
        <time>2017-06-02T10:39:29Z</time>
      </trkpt>
      <trkpt lat="42.58462" lon="8.80172">
        <ele>0.1</ele>
        <time>2017-06-02T10:39:47Z</time>
      </trkpt>
      <trkpt lat="42.58462" lon="8.80172">
        <ele>0.12</ele>
        <time>2017-06-02T10:40:05Z</time>
      </trkpt>
      <trkpt lat="42.58462" lon="8.80172">
        <ele>0.34</ele>
        <time>2017-06-02T10:40:24Z</time>
      </trkpt>
      <trkpt lat="42.58462" lon="8.80172">
        <ele>0.22</ele>
        <time>2017-06-02T10:40:44Z</time>
      </trkpt>
      <trkpt lat="42.58462" lon="8.80173">
        <ele>0.56</ele>
        <time>2017-06-02T10:41:03Z</time>
      </trkpt>
      <trkpt lat="42.58462" lon="8.80173">
        <ele>0.24</ele>
        <time>2017-06-02T10:41:23Z</time>
      </trkpt>
      <trkpt lat="42.58462" lon="8.80172">
        <ele>0.55</ele>
        <time>2017-06-02T10:41:45Z</time>
      </trkpt>
      <trkpt lat="42.58461" lon="8.80172">
        <ele>0.6</ele>
        <time>2017-06-02T10:42:08Z</time>
      </trkpt>
      <trkpt lat="42.58463" lon="8.80178">
        <ele>0.79</ele>
        <time>2017-06-02T10:42:25Z</time>
      </trkpt>
      <trkpt lat="42.58467" lon="8.8018">
        <ele>0.17</ele>
        <time>2017-06-02T10:42:36Z</time>
      </trkpt>
      <trkpt lat="42.58467" lon="8.80181">
        <ele>0.27</ele>
        <time>2017-06-02T10:42:52Z</time>
      </trkpt>
      <trkpt lat="42.58466" lon="8.8018">
        <ele>0.93</ele>
        <time>2017-06-02T10:43:08Z</time>
      </trkpt>
      <trkpt lat="42.58464" lon="8.80177">
        <ele>1.28</ele>
        <time>2017-06-02T10:43:31Z</time>
      </trkpt>
      <trkpt lat="42.58463" lon="8.80176">
        <ele>0.85</ele>
        <time>2017-06-02T10:43:51Z</time>
      </trkpt>
      <trkpt lat="42.58463" lon="8.80175">
        <ele>1.25</ele>
        <time>2017-06-02T10:44:16Z</time>
      </trkpt>
      <trkpt lat="42.58463" lon="8.80177">
        <ele>0.99</ele>
        <time>2017-06-02T10:44:38Z</time>
      </trkpt>
      <trkpt lat="42.58464" lon="8.80177">
        <ele>1.18</ele>
        <time>2017-06-02T10:44:58Z</time>
      </trkpt>
      <trkpt lat="42.58461" lon="8.80173">
        <ele>0.69</ele>
        <time>2017-06-02T10:45:18Z</time>
      </trkpt>
      <trkpt lat="42.58457" lon="8.80169">
        <ele>0.19</ele>
        <time>2017-06-02T10:45:35Z</time>
      </trkpt>
      <trkpt lat="42.58458" lon="8.80173">
        <ele>-0.22</ele>
        <time>2017-06-02T10:45:55Z</time>
      </trkpt>
      <trkpt lat="42.58459" lon="8.80171">
        <ele>-0.34</ele>
        <time>2017-06-02T10:46:15Z</time>
      </trkpt>
      <trkpt lat="42.58456" lon="8.80164">
        <ele>-0.6</ele>
        <time>2017-06-02T10:46:34Z</time>
      </trkpt>
      <trkpt lat="42.58454" lon="8.80162">
        <ele>-0.76</ele>
        <time>2017-06-02T10:46:56Z</time>
      </trkpt>
      <trkpt lat="42.58455" lon="8.80161">
        <ele>-4.06</ele>
        <time>2017-06-02T10:47:01Z</time>
      </trkpt>
      <trkpt lat="42.58455" lon="8.8016">
        <ele>-7.08</ele>
        <time>2017-06-02T10:47:02Z</time>
      </trkpt>
      <trkpt lat="42.58455" lon="8.80161">
        <ele>-9.43</ele>
        <time>2017-06-02T10:47:03Z</time>
      </trkpt>
      <trkpt lat="42.58456" lon="8.8016">
        <ele>-7.45</ele>
        <time>2017-06-02T10:47:08Z</time>
      </trkpt>
      <trkpt lat="42.58455" lon="8.8016">
        <ele>-4.07</ele>
        <time>2017-06-02T10:47:11Z</time>
      </trkpt>
      <trkpt lat="42.58455" lon="8.80162">
        <ele>-8.57</ele>
        <time>2017-06-02T10:47:19Z</time>
      </trkpt>
      <trkpt lat="42.58455" lon="8.80162">
        <ele>-11.77</ele>
        <time>2017-06-02T10:47:20Z</time>
      </trkpt>
      <trkpt lat="42.58455" lon="8.80162">
        <ele>-18.77</ele>
        <time>2017-06-02T10:47:21Z</time>
      </trkpt>
      <trkpt lat="42.58455" lon="8.80162">
        <ele>-18.77</ele>
        <time>2017-06-02T10:47:22Z</time>
      </trkpt>
      <trkpt lat="42.58455" lon="8.80162">
        <ele>-23.59</ele>
        <time>2017-06-02T10:47:23Z</time>
      </trkpt>
      <trkpt lat="42.58455" lon="8.80164">
        <ele>-18.59</ele>
        <time>2017-06-02T10:47:27Z</time>
      </trkpt>
      <trkpt lat="42.58455" lon="8.80164">
        <ele>-15.3</ele>
        <time>2017-06-02T10:47:28Z</time>
      </trkpt>
      <trkpt lat="42.58455" lon="8.80164">
        <ele>-12.26</ele>
        <time>2017-06-02T10:47:29Z</time>
      </trkpt>
      <trkpt lat="42.58455" lon="8.80163">
        <ele>-7.87</ele>
        <time>2017-06-02T10:47:31Z</time>
      </trkpt>
      <trkpt lat="42.58455" lon="8.80163">
        <ele>-4.04</ele>
        <time>2017-06-02T10:47:34Z</time>
      </trkpt>
      <trkpt lat="42.58456" lon="8.80162">
        <ele>-0.85</ele>
        <time>2017-06-02T10:47:39Z</time>
      </trkpt>
      <trkpt lat="42.58456" lon="8.80158">
        <ele>0.08</ele>
        <time>2017-06-02T10:48:01Z</time>
      </trkpt>
      <trkpt lat="42.58455" lon="8.80156">
        <ele>-0.21</ele>
        <time>2017-06-02T10:48:28Z</time>
      </trkpt>
      <trkpt lat="42.58448" lon="8.80149">
        <ele>-0.23</ele>
        <time>2017-06-02T10:48:48Z</time>
      </trkpt>
      <trkpt lat="42.58445" lon="8.80144">
        <ele>-0.41</ele>
        <time>2017-06-02T10:48:59Z</time>
      </trkpt>
      <trkpt lat="42.58444" lon="8.80141">
        <ele>-0.52</ele>
        <time>2017-06-02T10:49:01Z</time>
      </trkpt>
      <trkpt lat="42.58433" lon="8.80112">
        <ele>-0.3</ele>
        <time>2017-06-02T10:49:19Z</time>
      </trkpt>
      <trkpt lat="42.58415" lon="8.8008">
        <ele>-0.53</ele>
        <time>2017-06-02T10:49:35Z</time>
      </trkpt>
      <trkpt lat="42.58404" lon="8.80052">
        <ele>-0.41</ele>
        <time>2017-06-02T10:49:49Z</time>
      </trkpt>
      <trkpt lat="42.58393" lon="8.80022">
        <ele>-0.45</ele>
        <time>2017-06-02T10:50:03Z</time>
      </trkpt>
      <trkpt lat="42.58375" lon="8.79993">
        <ele>-0.72</ele>
        <time>2017-06-02T10:50:17Z</time>
      </trkpt>
      <trkpt lat="42.58361" lon="8.7996">
        <ele>-0.69</ele>
        <time>2017-06-02T10:50:31Z</time>
      </trkpt>
      <trkpt lat="42.58359" lon="8.79929">
        <ele>-0.55</ele>
        <time>2017-06-02T10:50:44Z</time>
      </trkpt>
      <trkpt lat="42.58359" lon="8.79892">
        <ele>-0.6</ele>
        <time>2017-06-02T10:51:00Z</time>
      </trkpt>
      <trkpt lat="42.58354" lon="8.79869">
        <ele>-0.81</ele>
        <time>2017-06-02T10:51:12Z</time>
      </trkpt>
      <trkpt lat="42.58349" lon="8.7983">
        <ele>-0.61</ele>
        <time>2017-06-02T10:51:29Z</time>
      </trkpt>
      <trkpt lat="42.58336" lon="8.79803">
        <ele>-0.71</ele>
        <time>2017-06-02T10:51:43Z</time>
      </trkpt>
      <trkpt lat="42.58323" lon="8.79784">
        <ele>-0.68</ele>
        <time>2017-06-02T10:51:54Z</time>
      </trkpt>
      <trkpt lat="42.58321" lon="8.79778">
        <ele>-0.59</ele>
        <time>2017-06-02T10:51:58Z</time>
      </trkpt>
      <trkpt lat="42.58308" lon="8.79758">
        <ele>-0.59</ele>
        <time>2017-06-02T10:52:12Z</time>
      </trkpt>
      <trkpt lat="42.58287" lon="8.7976">
        <ele>-0.84</ele>
        <time>2017-06-02T10:52:25Z</time>
      </trkpt>
      <trkpt lat="42.58261" lon="8.79781">
        <ele>-0.98</ele>
        <time>2017-06-02T10:52:41Z</time>
      </trkpt>
      <trkpt lat="42.58249" lon="8.79806">
        <ele>-0.94</ele>
        <time>2017-06-02T10:52:56Z</time>
      </trkpt>
      <trkpt lat="42.58238" lon="8.79827">
        <ele>-0.82</ele>
        <time>2017-06-02T10:53:12Z</time>
      </trkpt>
      <trkpt lat="42.5823" lon="8.79841">
        <ele>-0.7</ele>
        <time>2017-06-02T10:53:26Z</time>
      </trkpt>
      <trkpt lat="42.58228" lon="8.79841">
        <ele>-0.98</ele>
        <time>2017-06-02T10:53:51Z</time>
      </trkpt>
      <trkpt lat="42.58217" lon="8.79856">
        <ele>-1.01</ele>
        <time>2017-06-02T10:54:17Z</time>
      </trkpt>
      <trkpt lat="42.58213" lon="8.79866">
        <ele>-1.19</ele>
        <time>2017-06-02T10:54:24Z</time>
      </trkpt>
      <trkpt lat="42.5821" lon="8.79897">
        <ele>-1.1</ele>
        <time>2017-06-02T10:54:41Z</time>
      </trkpt>
      <trkpt lat="42.58208" lon="8.79946">
        <ele>-0.84</ele>
        <time>2017-06-02T10:55:00Z</time>
      </trkpt>
      <trkpt lat="42.5821" lon="8.79989">
        <ele>-0.91</ele>
        <time>2017-06-02T10:55:18Z</time>
      </trkpt>
      <trkpt lat="42.582" lon="8.80034">
        <ele>-0.99</ele>
        <time>2017-06-02T10:55:38Z</time>
      </trkpt>
      <trkpt lat="42.58187" lon="8.80066">
        <ele>-0.97</ele>
        <time>2017-06-02T10:55:55Z</time>
      </trkpt>
      <trkpt lat="42.58172" lon="8.80107">
        <ele>-0.93</ele>
        <time>2017-06-02T10:56:13Z</time>
      </trkpt>
      <trkpt lat="42.58154" lon="8.80145">
        <ele>-0.78</ele>
        <time>2017-06-02T10:56:30Z</time>
      </trkpt>
      <trkpt lat="42.58125" lon="8.80186">
        <ele>-0.52</ele>
        <time>2017-06-02T10:56:50Z</time>
      </trkpt>
      <trkpt lat="42.58112" lon="8.80192">
        <ele>-0.45</ele>
        <time>2017-06-02T10:57:03Z</time>
      </trkpt>
      <trkpt lat="42.58102" lon="8.80193">
        <ele>-0.34</ele>
        <time>2017-06-02T10:57:30Z</time>
      </trkpt>
      <trkpt lat="42.58095" lon="8.80191">
        <ele>-0.34</ele>
        <time>2017-06-02T10:57:47Z</time>
      </trkpt>
      <trkpt lat="42.58084" lon="8.80167">
        <ele>-0.06</ele>
        <time>2017-06-02T10:58:02Z</time>
      </trkpt>
      <trkpt lat="42.58071" lon="8.80145">
        <ele>-0.27</ele>
        <time>2017-06-02T10:58:15Z</time>
      </trkpt>
      <trkpt lat="42.58049" lon="8.80142">
        <ele>-0.66</ele>
        <time>2017-06-02T10:58:28Z</time>
      </trkpt>
      <trkpt lat="42.58025" lon="8.8016">
        <ele>-0.61</ele>
        <time>2017-06-02T10:58:43Z</time>
      </trkpt>
      <trkpt lat="42.58004" lon="8.80193">
        <ele>-0.81</ele>
        <time>2017-06-02T10:58:58Z</time>
      </trkpt>
      <trkpt lat="42.57985" lon="8.80221">
        <ele>-0.81</ele>
        <time>2017-06-02T10:59:12Z</time>
      </trkpt>
      <trkpt lat="42.57962" lon="8.80241">
        <ele>-0.48</ele>
        <time>2017-06-02T10:59:25Z</time>
      </trkpt>
      <trkpt lat="42.5793" lon="8.80264">
        <ele>-0.68</ele>
        <time>2017-06-02T10:59:42Z</time>
      </trkpt>
      <trkpt lat="42.57902" lon="8.80274">
        <ele>-0.61</ele>
        <time>2017-06-02T10:59:56Z</time>
      </trkpt>
      <trkpt lat="42.57872" lon="8.80274">
        <time>2017-06-02T11:00:12Z</time>
      </trkpt>
      <trkpt lat="42.57849" lon="8.80301">
        <ele>0.02</ele>
        <time>2017-06-02T11:00:27Z</time>
      </trkpt>
      <trkpt lat="42.57819" lon="8.80338">
        <ele>0.07</ele>
        <time>2017-06-02T11:00:46Z</time>
      </trkpt>
      <trkpt lat="42.57793" lon="8.8036">
        <ele>0.2</ele>
        <time>2017-06-02T11:01:02Z</time>
      </trkpt>
      <trkpt lat="42.5776" lon="8.80371">
        <ele>0.16</ele>
        <time>2017-06-02T11:01:19Z</time>
      </trkpt>
      <trkpt lat="42.57723" lon="8.8038">
        <ele>0.19</ele>
        <time>2017-06-02T11:01:36Z</time>
      </trkpt>
      <trkpt lat="42.57695" lon="8.80384">
        <ele>0.29</ele>
        <time>2017-06-02T11:01:49Z</time>
      </trkpt>
      <trkpt lat="42.57664" lon="8.80394">
        <ele>0.39</ele>
        <time>2017-06-02T11:02:04Z</time>
      </trkpt>
      <trkpt lat="42.57642" lon="8.80396">
        <ele>0.6</ele>
        <time>2017-06-02T11:02:21Z</time>
      </trkpt>
      <trkpt lat="42.57618" lon="8.80395">
        <ele>0.64</ele>
        <time>2017-06-02T11:02:35Z</time>
      </trkpt>
      <trkpt lat="42.57584" lon="8.80405">
        <ele>0.6</ele>
        <time>2017-06-02T11:02:50Z</time>
      </trkpt>
      <trkpt lat="42.57553" lon="8.80409">
        <ele>0.5</ele>
        <time>2017-06-02T11:03:04Z</time>
      </trkpt>
      <trkpt lat="42.57518" lon="8.80425">
        <ele>0.54</ele>
        <time>2017-06-02T11:03:20Z</time>
      </trkpt>
      <trkpt lat="42.57486" lon="8.80445">
        <ele>0.8</ele>
        <time>2017-06-02T11:03:36Z</time>
      </trkpt>
      <trkpt lat="42.57446" lon="8.80467">
        <ele>0.97</ele>
        <time>2017-06-02T11:03:55Z</time>
      </trkpt>
      <trkpt lat="42.57413" lon="8.80474">
        <ele>1.06</ele>
        <time>2017-06-02T11:04:11Z</time>
      </trkpt>
      <trkpt lat="42.57383" lon="8.80482">
        <ele>1.09</ele>
        <time>2017-06-02T11:04:25Z</time>
      </trkpt>
      <trkpt lat="42.57356" lon="8.80483">
        <ele>1.43</ele>
        <time>2017-06-02T11:04:37Z</time>
      </trkpt>
      <trkpt lat="42.57329" lon="8.80484">
        <ele>1.29</ele>
        <time>2017-06-02T11:04:50Z</time>
      </trkpt>
      <trkpt lat="42.57299" lon="8.80482">
        <ele>1.28</ele>
        <time>2017-06-02T11:05:04Z</time>
      </trkpt>
      <trkpt lat="42.57269" lon="8.80478">
        <ele>1.16</ele>
        <time>2017-06-02T11:05:18Z</time>
      </trkpt>
      <trkpt lat="42.57242" lon="8.80473">
        <ele>1.24</ele>
        <time>2017-06-02T11:05:32Z</time>
      </trkpt>
      <trkpt lat="42.57216" lon="8.80466">
        <ele>1.18</ele>
        <time>2017-06-02T11:05:46Z</time>
      </trkpt>
      <trkpt lat="42.5719" lon="8.80459">
        <ele>1.25</ele>
        <time>2017-06-02T11:05:58Z</time>
      </trkpt>
      <trkpt lat="42.57166" lon="8.80459">
        <ele>1.37</ele>
        <time>2017-06-02T11:06:10Z</time>
      </trkpt>
      <trkpt lat="42.57148" lon="8.80453">
        <ele>1.39</ele>
        <time>2017-06-02T11:06:25Z</time>
      </trkpt>
      <trkpt lat="42.57131" lon="8.80445">
        <ele>1.14</ele>
        <time>2017-06-02T11:06:38Z</time>
      </trkpt>
      <trkpt lat="42.57109" lon="8.80435">
        <ele>1.2</ele>
        <time>2017-06-02T11:06:51Z</time>
      </trkpt>
      <trkpt lat="42.57089" lon="8.80425">
        <ele>1.45</ele>
        <time>2017-06-02T11:07:03Z</time>
      </trkpt>
      <trkpt lat="42.57067" lon="8.80408">
        <ele>1.37</ele>
        <time>2017-06-02T11:07:16Z</time>
      </trkpt>
      <trkpt lat="42.57051" lon="8.80392">
        <ele>1.47</ele>
        <time>2017-06-02T11:07:32Z</time>
      </trkpt>
      <trkpt lat="42.57034" lon="8.80375">
        <ele>1.38</ele>
        <time>2017-06-02T11:07:45Z</time>
      </trkpt>
      <trkpt lat="42.57012" lon="8.80359">
        <ele>1.32</ele>
        <time>2017-06-02T11:07:58Z</time>
      </trkpt>
      <trkpt lat="42.5699" lon="8.80337">
        <ele>1.22</ele>
        <time>2017-06-02T11:08:11Z</time>
      </trkpt>
      <trkpt lat="42.56972" lon="8.8032">
        <ele>0.93</ele>
        <time>2017-06-02T11:08:24Z</time>
      </trkpt>
      <trkpt lat="42.56952" lon="8.80293">
        <ele>0.94</ele>
        <time>2017-06-02T11:08:38Z</time>
      </trkpt>
      <trkpt lat="42.56931" lon="8.80257">
        <ele>0.64</ele>
        <time>2017-06-02T11:08:54Z</time>
      </trkpt>
      <trkpt lat="42.5691" lon="8.80226">
        <ele>0.65</ele>
        <time>2017-06-02T11:09:08Z</time>
      </trkpt>
      <trkpt lat="42.56891" lon="8.80189">
        <ele>0.72</ele>
        <time>2017-06-02T11:09:24Z</time>
      </trkpt>
      <trkpt lat="42.56873" lon="8.8016">
        <ele>0.79</ele>
        <time>2017-06-02T11:09:37Z</time>
      </trkpt>
      <trkpt lat="42.56852" lon="8.80129">
        <ele>0.74</ele>
        <time>2017-06-02T11:09:51Z</time>
      </trkpt>
      <trkpt lat="42.56833" lon="8.80095">
        <ele>0.65</ele>
        <time>2017-06-02T11:10:07Z</time>
      </trkpt>
      <trkpt lat="42.5682" lon="8.80054">
        <ele>0.83</ele>
        <time>2017-06-02T11:10:24Z</time>
      </trkpt>
      <trkpt lat="42.56808" lon="8.8002">
        <ele>0.84</ele>
        <time>2017-06-02T11:10:38Z</time>
      </trkpt>
      <trkpt lat="42.56786" lon="8.79985">
        <ele>0.69</ele>
        <time>2017-06-02T11:10:53Z</time>
      </trkpt>
      <trkpt lat="42.56767" lon="8.7996">
        <ele>0.58</ele>
        <time>2017-06-02T11:11:06Z</time>
      </trkpt>
      <trkpt lat="42.56745" lon="8.79934">
        <ele>0.45</ele>
        <time>2017-06-02T11:11:19Z</time>
      </trkpt>
      <trkpt lat="42.56728" lon="8.79904">
        <ele>0.62</ele>
        <time>2017-06-02T11:11:33Z</time>
      </trkpt>
      <trkpt lat="42.5671" lon="8.7987">
        <ele>0.62</ele>
        <time>2017-06-02T11:11:47Z</time>
      </trkpt>
      <trkpt lat="42.56694" lon="8.79842">
        <ele>0.33</ele>
        <time>2017-06-02T11:11:59Z</time>
      </trkpt>
      <trkpt lat="42.56677" lon="8.79812">
        <ele>0.12</ele>
        <time>2017-06-02T11:12:12Z</time>
      </trkpt>
      <trkpt lat="42.56659" lon="8.79783">
        <ele>0.11</ele>
        <time>2017-06-02T11:12:25Z</time>
      </trkpt>
      <trkpt lat="42.56641" lon="8.79757">
        <ele>-0.06</ele>
        <time>2017-06-02T11:12:37Z</time>
      </trkpt>
      <trkpt lat="42.56621" lon="8.79723">
        <ele>-0.13</ele>
        <time>2017-06-02T11:12:51Z</time>
      </trkpt>
      <trkpt lat="42.56604" lon="8.7969">
        <ele>-0.03</ele>
        <time>2017-06-02T11:13:05Z</time>
      </trkpt>
      <trkpt lat="42.56589" lon="8.79656">
        <ele>0.04</ele>
        <time>2017-06-02T11:13:19Z</time>
      </trkpt>
      <trkpt lat="42.56571" lon="8.79626">
        <ele>-0.27</ele>
        <time>2017-06-02T11:13:32Z</time>
      </trkpt>
      <trkpt lat="42.56552" lon="8.79592">
        <ele>-0.48</ele>
        <time>2017-06-02T11:13:48Z</time>
      </trkpt>
      <trkpt lat="42.5653" lon="8.79564">
        <ele>-0.5</ele>
        <time>2017-06-02T11:14:02Z</time>
      </trkpt>
      <trkpt lat="42.56507" lon="8.79539">
        <ele>-0.85</ele>
        <time>2017-06-02T11:14:16Z</time>
      </trkpt>
      <trkpt lat="42.56479" lon="8.7952">
        <ele>-0.91</ele>
        <time>2017-06-02T11:14:31Z</time>
      </trkpt>
      <trkpt lat="42.56453" lon="8.79503">
        <ele>-0.98</ele>
        <time>2017-06-02T11:14:44Z</time>
      </trkpt>
      <trkpt lat="42.56424" lon="8.79481">
        <ele>-0.89</ele>
        <time>2017-06-02T11:14:58Z</time>
      </trkpt>
      <trkpt lat="42.56396" lon="8.7945">
        <ele>-0.56</ele>
        <time>2017-06-02T11:15:15Z</time>
      </trkpt>
      <trkpt lat="42.56375" lon="8.79422">
        <ele>-0.78</ele>
        <time>2017-06-02T11:15:28Z</time>
      </trkpt>
      <trkpt lat="42.56348" lon="8.79392">
        <ele>-0.89</ele>
        <time>2017-06-02T11:15:44Z</time>
      </trkpt>
      <trkpt lat="42.56319" lon="8.7936">
        <ele>-0.87</ele>
        <time>2017-06-02T11:16:00Z</time>
      </trkpt>
      <trkpt lat="42.56299" lon="8.79334">
        <ele>-0.99</ele>
        <time>2017-06-02T11:16:13Z</time>
      </trkpt>
      <trkpt lat="42.56277" lon="8.79309">
        <ele>-1.18</ele>
        <time>2017-06-02T11:16:26Z</time>
      </trkpt>
      <trkpt lat="42.56257" lon="8.79287">
        <ele>-1.44</ele>
        <time>2017-06-02T11:16:38Z</time>
      </trkpt>
      <trkpt lat="42.56236" lon="8.79256">
        <ele>-1.01</ele>
        <time>2017-06-02T11:16:52Z</time>
      </trkpt>
      <trkpt lat="42.56216" lon="8.79225">
        <ele>-1.07</ele>
        <time>2017-06-02T11:17:06Z</time>
      </trkpt>
      <trkpt lat="42.56197" lon="8.79199">
        <ele>-1.11</ele>
        <time>2017-06-02T11:17:18Z</time>
      </trkpt>
      <trkpt lat="42.5618" lon="8.79171">
        <ele>-1</ele>
        <time>2017-06-02T11:17:31Z</time>
      </trkpt>
      <trkpt lat="42.56163" lon="8.79132">
        <ele>-1.19</ele>
        <time>2017-06-02T11:17:47Z</time>
      </trkpt>
      <trkpt lat="42.56153" lon="8.79105">
        <ele>-0.99</ele>
        <time>2017-06-02T11:17:58Z</time>
      </trkpt>
      <trkpt lat="42.56141" lon="8.79073">
        <ele>-0.89</ele>
        <time>2017-06-02T11:18:11Z</time>
      </trkpt>
      <trkpt lat="42.56127" lon="8.79042">
        <ele>-0.89</ele>
        <time>2017-06-02T11:18:23Z</time>
      </trkpt>
      <trkpt lat="42.56117" lon="8.79005">
        <ele>-0.86</ele>
        <time>2017-06-02T11:18:37Z</time>
      </trkpt>
      <trkpt lat="42.56104" lon="8.78969">
        <ele>-0.8</ele>
        <time>2017-06-02T11:18:51Z</time>
      </trkpt>
      <trkpt lat="42.5609" lon="8.78936">
        <ele>-0.88</ele>
        <time>2017-06-02T11:19:05Z</time>
      </trkpt>
      <trkpt lat="42.56078" lon="8.78885">
        <ele>-1.17</ele>
        <time>2017-06-02T11:19:24Z</time>
      </trkpt>
      <trkpt lat="42.56072" lon="8.78852">
        <ele>-1.22</ele>
        <time>2017-06-02T11:19:37Z</time>
      </trkpt>
      <trkpt lat="42.5606" lon="8.7881">
        <ele>-1.33</ele>
        <time>2017-06-02T11:19:53Z</time>
      </trkpt>
      <trkpt lat="42.5605" lon="8.78766">
        <ele>-1.21</ele>
        <time>2017-06-02T11:20:09Z</time>
      </trkpt>
      <trkpt lat="42.56044" lon="8.78731">
        <ele>-1.24</ele>
        <time>2017-06-02T11:20:22Z</time>
      </trkpt>
      <trkpt lat="42.56035" lon="8.78693">
        <ele>-1.2</ele>
        <time>2017-06-02T11:20:36Z</time>
      </trkpt>
      <trkpt lat="42.56028" lon="8.78657">
        <ele>-1.19</ele>
        <time>2017-06-02T11:20:50Z</time>
      </trkpt>
      <trkpt lat="42.56019" lon="8.78624">
        <ele>-1.25</ele>
        <time>2017-06-02T11:21:03Z</time>
      </trkpt>
      <trkpt lat="42.56013" lon="8.78588">
        <ele>-1.53</ele>
        <time>2017-06-02T11:21:17Z</time>
      </trkpt>
      <trkpt lat="42.56011" lon="8.78567">
        <ele>-1.46</ele>
        <time>2017-06-02T11:21:25Z</time>
      </trkpt>
      <trkpt lat="42.56009" lon="8.78554">
        <ele>-1.41</ele>
        <time>2017-06-02T11:21:30Z</time>
      </trkpt>
      <trkpt lat="42.56004" lon="8.78519">
        <ele>-1.35</ele>
        <time>2017-06-02T11:21:43Z</time>
      </trkpt>
      <trkpt lat="42.55998" lon="8.78483">
        <ele>-1.5</ele>
        <time>2017-06-02T11:21:55Z</time>
      </trkpt>
      <trkpt lat="42.55993" lon="8.78444">
        <ele>-1.38</ele>
        <time>2017-06-02T11:22:09Z</time>
      </trkpt>
      <trkpt lat="42.55992" lon="8.78424">
        <ele>-1.54</ele>
        <time>2017-06-02T11:22:17Z</time>
      </trkpt>
      <trkpt lat="42.5599" lon="8.78411">
        <ele>-1.66</ele>
        <time>2017-06-02T11:22:22Z</time>
      </trkpt>
      <trkpt lat="42.55985" lon="8.78371">
        <ele>-1.76</ele>
        <time>2017-06-02T11:22:37Z</time>
      </trkpt>
      <trkpt lat="42.5598" lon="8.78335">
        <ele>-1.47</ele>
        <time>2017-06-02T11:22:50Z</time>
      </trkpt>
      <trkpt lat="42.55976" lon="8.7832">
        <ele>-1.53</ele>
        <time>2017-06-02T11:22:56Z</time>
      </trkpt>
      <trkpt lat="42.55971" lon="8.7828">
        <ele>-1.58</ele>
        <time>2017-06-02T11:23:11Z</time>
      </trkpt>
      <trkpt lat="42.55967" lon="8.78245">
        <ele>-1.4</ele>
        <time>2017-06-02T11:23:24Z</time>
      </trkpt>
      <trkpt lat="42.55967" lon="8.78211">
        <ele>-1.48</ele>
        <time>2017-06-02T11:23:37Z</time>
      </trkpt>
      <trkpt lat="42.55966" lon="8.78177">
        <ele>-1.43</ele>
        <time>2017-06-02T11:23:49Z</time>
      </trkpt>
      <trkpt lat="42.55965" lon="8.7814">
        <ele>-1.39</ele>
        <time>2017-06-02T11:24:03Z</time>
      </trkpt>
      <trkpt lat="42.55966" lon="8.78107">
        <ele>-1.16</ele>
        <time>2017-06-02T11:24:16Z</time>
      </trkpt>
      <trkpt lat="42.55965" lon="8.781">
        <ele>-1.29</ele>
        <time>2017-06-02T11:24:19Z</time>
      </trkpt>
      <trkpt lat="42.55965" lon="8.78084">
        <ele>-1.36</ele>
        <time>2017-06-02T11:24:25Z</time>
      </trkpt>
      <trkpt lat="42.55962" lon="8.78049">
        <ele>-1.53</ele>
        <time>2017-06-02T11:24:39Z</time>
      </trkpt>
      <trkpt lat="42.55961" lon="8.78013">
        <ele>-1.66</ele>
        <time>2017-06-02T11:24:53Z</time>
      </trkpt>
      <trkpt lat="42.55965" lon="8.77977">
        <ele>-1.52</ele>
        <time>2017-06-02T11:25:06Z</time>
      </trkpt>
      <trkpt lat="42.55965" lon="8.77938">
        <ele>-1.5</ele>
        <time>2017-06-02T11:25:21Z</time>
      </trkpt>
      <trkpt lat="42.55969" lon="8.77907">
        <ele>-1.55</ele>
        <time>2017-06-02T11:25:33Z</time>
      </trkpt>
      <trkpt lat="42.55969" lon="8.77905">
        <ele>-1.53</ele>
        <time>2017-06-02T11:25:34Z</time>
      </trkpt>
      <trkpt lat="42.55965" lon="8.77886">
        <ele>-1.61</ele>
        <time>2017-06-02T11:25:42Z</time>
      </trkpt>
      <trkpt lat="42.55965" lon="8.77875">
        <ele>-1.66</ele>
        <time>2017-06-02T11:25:47Z</time>
      </trkpt>
      <trkpt lat="42.55975" lon="8.77839">
        <ele>-1.87</ele>
        <time>2017-06-02T11:26:03Z</time>
      </trkpt>
      <trkpt lat="42.55982" lon="8.77805">
        <ele>-1.64</ele>
        <time>2017-06-02T11:26:17Z</time>
      </trkpt>
      <trkpt lat="42.55987" lon="8.77778">
        <ele>-1.53</ele>
        <time>2017-06-02T11:26:28Z</time>
      </trkpt>
      <trkpt lat="42.55993" lon="8.77739">
        <ele>-1.76</ele>
        <time>2017-06-02T11:26:44Z</time>
      </trkpt>
      <trkpt lat="42.56001" lon="8.77705">
        <ele>-1.75</ele>
        <time>2017-06-02T11:26:58Z</time>
      </trkpt>
      <trkpt lat="42.56004" lon="8.7767">
        <ele>-1.95</ele>
        <time>2017-06-02T11:27:12Z</time>
      </trkpt>
      <trkpt lat="42.56009" lon="8.77636">
        <ele>-1.88</ele>
        <time>2017-06-02T11:27:26Z</time>
      </trkpt>
      <trkpt lat="42.56017" lon="8.77597">
        <ele>-2.05</ele>
        <time>2017-06-02T11:27:42Z</time>
      </trkpt>
      <trkpt lat="42.56021" lon="8.77557">
        <ele>-1.92</ele>
        <time>2017-06-02T11:27:57Z</time>
      </trkpt>
      <trkpt lat="42.56027" lon="8.77526">
        <ele>-2.09</ele>
        <time>2017-06-02T11:28:10Z</time>
      </trkpt>
      <trkpt lat="42.56031" lon="8.77494">
        <ele>-1.93</ele>
        <time>2017-06-02T11:28:23Z</time>
      </trkpt>
      <trkpt lat="42.56036" lon="8.77454">
        <ele>-1.78</ele>
        <time>2017-06-02T11:28:38Z</time>
      </trkpt>
      <trkpt lat="42.56043" lon="8.77417">
        <ele>-1.89</ele>
        <time>2017-06-02T11:28:53Z</time>
      </trkpt>
      <trkpt lat="42.56048" lon="8.77386">
        <ele>-1.92</ele>
        <time>2017-06-02T11:29:06Z</time>
      </trkpt>
      <trkpt lat="42.56054" lon="8.77357">
        <ele>-1.56</ele>
        <time>2017-06-02T11:29:19Z</time>
      </trkpt>
      <trkpt lat="42.56055" lon="8.77345">
        <ele>-1.63</ele>
        <time>2017-06-02T11:29:24Z</time>
      </trkpt>
      <trkpt lat="42.56063" lon="8.77308">
        <ele>-1.9</ele>
        <time>2017-06-02T11:29:39Z</time>
      </trkpt>
      <trkpt lat="42.56067" lon="8.77272">
        <ele>-2.24</ele>
        <time>2017-06-02T11:29:56Z</time>
      </trkpt>
      <trkpt lat="42.56072" lon="8.77247">
        <ele>-2.19</ele>
        <time>2017-06-02T11:30:07Z</time>
      </trkpt>
      <trkpt lat="42.56077" lon="8.77211">
        <ele>-2.4</ele>
        <time>2017-06-02T11:30:22Z</time>
      </trkpt>
      <trkpt lat="42.56084" lon="8.77179">
        <ele>-2.1</ele>
        <time>2017-06-02T11:30:36Z</time>
      </trkpt>
      <trkpt lat="42.56084" lon="8.77167">
        <ele>-2.24</ele>
        <time>2017-06-02T11:30:56Z</time>
      </trkpt>
      <trkpt lat="42.56079" lon="8.77166">
        <ele>-2.43</ele>
        <time>2017-06-02T11:31:22Z</time>
      </trkpt>
      <trkpt lat="42.56074" lon="8.77168">
        <ele>-2.58</ele>
        <time>2017-06-02T11:31:48Z</time>
      </trkpt>
      <trkpt lat="42.56067" lon="8.77165">
        <ele>-2.12</ele>
        <time>2017-06-02T11:32:13Z</time>
      </trkpt>
      <trkpt lat="42.5606" lon="8.77179">
        <ele>-2.54</ele>
        <time>2017-06-02T11:32:36Z</time>
      </trkpt>
      <trkpt lat="42.56041" lon="8.77179">
        <ele>-2.22</ele>
        <time>2017-06-02T11:32:52Z</time>
      </trkpt>
      <trkpt lat="42.56039" lon="8.77174">
        <ele>-2.29</ele>
        <time>2017-06-02T11:32:55Z</time>
      </trkpt>
      <trkpt lat="42.56036" lon="8.77149">
        <ele>-2.3</ele>
        <time>2017-06-02T11:33:09Z</time>
      </trkpt>
      <trkpt lat="42.56037" lon="8.77122">
        <ele>-1.95</ele>
        <time>2017-06-02T11:33:22Z</time>
      </trkpt>
      <trkpt lat="42.56038" lon="8.77106">
        <ele>-2</ele>
        <time>2017-06-02T11:33:30Z</time>
      </trkpt>
      <trkpt lat="42.5604" lon="8.77075">
        <ele>-1.86</ele>
        <time>2017-06-02T11:33:44Z</time>
      </trkpt>
      <trkpt lat="42.56042" lon="8.77055">
        <ele>-1.92</ele>
        <time>2017-06-02T11:33:53Z</time>
      </trkpt>
      <trkpt lat="42.56047" lon="8.77022">
        <ele>-2.11</ele>
        <time>2017-06-02T11:34:08Z</time>
      </trkpt>
      <trkpt lat="42.56049" lon="8.77011">
        <ele>-2.17</ele>
        <time>2017-06-02T11:34:13Z</time>
      </trkpt>
      <trkpt lat="42.56055" lon="8.76989">
        <ele>-2.05</ele>
        <time>2017-06-02T11:34:23Z</time>
      </trkpt>
      <trkpt lat="42.5606" lon="8.76955">
        <ele>-1.88</ele>
        <time>2017-06-02T11:34:38Z</time>
      </trkpt>
      <trkpt lat="42.56063" lon="8.7692">
        <ele>-1.92</ele>
        <time>2017-06-02T11:34:52Z</time>
      </trkpt>
      <trkpt lat="42.56065" lon="8.76887">
        <ele>-2.06</ele>
        <time>2017-06-02T11:35:06Z</time>
      </trkpt>
      <trkpt lat="42.56071" lon="8.76846">
        <ele>-2.13</ele>
        <time>2017-06-02T11:35:24Z</time>
      </trkpt>
      <trkpt lat="42.56074" lon="8.76805">
        <ele>-2.17</ele>
        <time>2017-06-02T11:35:40Z</time>
      </trkpt>
      <trkpt lat="42.56077" lon="8.76777">
        <ele>-2.17</ele>
        <time>2017-06-02T11:35:54Z</time>
      </trkpt>
      <trkpt lat="42.56078" lon="8.76769">
        <ele>-2.23</ele>
        <time>2017-06-02T11:35:59Z</time>
      </trkpt>
      <trkpt lat="42.56084" lon="8.7674">
        <ele>-2.05</ele>
        <time>2017-06-02T11:36:14Z</time>
      </trkpt>
      <trkpt lat="42.5609" lon="8.76716">
        <ele>-1.98</ele>
        <time>2017-06-02T11:36:25Z</time>
      </trkpt>
      <trkpt lat="42.561" lon="8.76676">
        <ele>-2.09</ele>
        <time>2017-06-02T11:36:42Z</time>
      </trkpt>
      <trkpt lat="42.56105" lon="8.76639">
        <ele>-2.37</ele>
        <time>2017-06-02T11:36:58Z</time>
      </trkpt>
      <trkpt lat="42.56108" lon="8.76593">
        <ele>-2.33</ele>
        <time>2017-06-02T11:37:16Z</time>
      </trkpt>
      <trkpt lat="42.56108" lon="8.76557">
        <ele>-2.43</ele>
        <time>2017-06-02T11:37:30Z</time>
      </trkpt>
      <trkpt lat="42.56107" lon="8.76523">
        <ele>-2.45</ele>
        <time>2017-06-02T11:37:45Z</time>
      </trkpt>
      <trkpt lat="42.56103" lon="8.76493">
        <ele>-2.36</ele>
        <time>2017-06-02T11:38:00Z</time>
      </trkpt>
      <trkpt lat="42.56101" lon="8.76457">
        <ele>-2.19</ele>
        <time>2017-06-02T11:38:16Z</time>
      </trkpt>
      <trkpt lat="42.56097" lon="8.76419">
        <ele>-2</ele>
        <time>2017-06-02T11:38:31Z</time>
      </trkpt>
      <trkpt lat="42.56102" lon="8.76375">
        <ele>-2.06</ele>
        <time>2017-06-02T11:38:47Z</time>
      </trkpt>
      <trkpt lat="42.56107" lon="8.76346">
        <ele>-2.29</ele>
        <time>2017-06-02T11:39:01Z</time>
      </trkpt>
      <trkpt lat="42.56103" lon="8.76335">
        <ele>-2.22</ele>
        <time>2017-06-02T11:39:23Z</time>
      </trkpt>
      <trkpt lat="42.56101" lon="8.76325">
        <ele>-2.01</ele>
        <time>2017-06-02T11:39:49Z</time>
      </trkpt>
      <trkpt lat="42.56101" lon="8.76313">
        <ele>-1.77</ele>
        <time>2017-06-02T11:40:11Z</time>
      </trkpt>
      <trkpt lat="42.56101" lon="8.76306">
        <ele>-1.82</ele>
        <time>2017-06-02T11:40:15Z</time>
      </trkpt>
      <trkpt lat="42.56092" lon="8.7626">
        <ele>-2.01</ele>
        <time>2017-06-02T11:40:34Z</time>
      </trkpt>
      <trkpt lat="42.56088" lon="8.76214">
        <ele>-1.95</ele>
        <time>2017-06-02T11:40:50Z</time>
      </trkpt>
      <trkpt lat="42.56088" lon="8.76176">
        <ele>-2.07</ele>
        <time>2017-06-02T11:41:03Z</time>
      </trkpt>
      <trkpt lat="42.56092" lon="8.76133">
        <ele>-1.69</ele>
        <time>2017-06-02T11:41:17Z</time>
      </trkpt>
      <trkpt lat="42.56091" lon="8.76097">
        <ele>-1.81</ele>
        <time>2017-06-02T11:41:31Z</time>
      </trkpt>
      <trkpt lat="42.56091" lon="8.76061">
        <ele>-1.99</ele>
        <time>2017-06-02T11:41:46Z</time>
      </trkpt>
      <trkpt lat="42.56095" lon="8.76021">
        <ele>-1.97</ele>
        <time>2017-06-02T11:42:01Z</time>
      </trkpt>
      <trkpt lat="42.56102" lon="8.75974">
        <ele>-1.85</ele>
        <time>2017-06-02T11:42:18Z</time>
      </trkpt>
      <trkpt lat="42.56115" lon="8.75922">
        <ele>-2.13</ele>
        <time>2017-06-02T11:42:37Z</time>
      </trkpt>
      <trkpt lat="42.56126" lon="8.75883">
        <ele>-2.12</ele>
        <time>2017-06-02T11:42:53Z</time>
      </trkpt>
      <trkpt lat="42.56136" lon="8.75848">
        <ele>-1.8</ele>
        <time>2017-06-02T11:43:07Z</time>
      </trkpt>
      <trkpt lat="42.56145" lon="8.75819">
        <ele>-2.15</ele>
        <time>2017-06-02T11:43:21Z</time>
      </trkpt>
      <trkpt lat="42.56156" lon="8.75792">
        <ele>-2.28</ele>
        <time>2017-06-02T11:43:35Z</time>
      </trkpt>
      <trkpt lat="42.56166" lon="8.75763">
        <ele>-2.3</ele>
        <time>2017-06-02T11:43:50Z</time>
      </trkpt>
      <trkpt lat="42.56179" lon="8.75737">
        <ele>-2.25</ele>
        <time>2017-06-02T11:44:06Z</time>
      </trkpt>
      <trkpt lat="42.56188" lon="8.75721">
        <ele>-2.55</ele>
        <time>2017-06-02T11:44:20Z</time>
      </trkpt>
      <trkpt lat="42.56199" lon="8.75704">
        <ele>-2.06</ele>
        <time>2017-06-02T11:44:37Z</time>
      </trkpt>
      <trkpt lat="42.56209" lon="8.75686">
        <ele>-2.42</ele>
        <time>2017-06-02T11:44:54Z</time>
      </trkpt>
      <trkpt lat="42.56215" lon="8.75668">
        <ele>-2.62</ele>
        <time>2017-06-02T11:45:12Z</time>
      </trkpt>
      <trkpt lat="42.56215" lon="8.75669">
        <ele>-1.84</ele>
        <time>2017-06-02T11:45:31Z</time>
      </trkpt>
      <trkpt lat="42.56213" lon="8.75662">
        <ele>-1.57</ele>
        <time>2017-06-02T11:45:48Z</time>
      </trkpt>
      <trkpt lat="42.56216" lon="8.75661">
        <ele>-1.55</ele>
        <time>2017-06-02T11:46:07Z</time>
      </trkpt>
      <trkpt lat="42.56218" lon="8.7566">
        <ele>-1.32</ele>
        <time>2017-06-02T11:46:27Z</time>
      </trkpt>
      <trkpt lat="42.56219" lon="8.75655">
        <ele>-1.57</ele>
        <time>2017-06-02T11:46:45Z</time>
      </trkpt>
      <trkpt lat="42.56219" lon="8.7564">
        <ele>-0.86</ele>
        <time>2017-06-02T11:47:03Z</time>
      </trkpt>
      <trkpt lat="42.56218" lon="8.75645">
        <ele>-0.78</ele>
        <time>2017-06-02T11:47:12Z</time>
      </trkpt>
      <trkpt lat="42.56222" lon="8.75649">
        <ele>-1.4</ele>
        <time>2017-06-02T11:47:31Z</time>
      </trkpt>
      <trkpt lat="42.5622" lon="8.75635">
        <ele>-0.47</ele>
        <time>2017-06-02T11:47:57Z</time>
      </trkpt>
      <trkpt lat="42.5622" lon="8.75633">
        <ele>-0.44</ele>
        <time>2017-06-02T11:48:29Z</time>
      </trkpt>
      <trkpt lat="42.56219" lon="8.75639">
        <ele>-0.67</ele>
        <time>2017-06-02T11:48:52Z</time>
      </trkpt>
      <trkpt lat="42.56225" lon="8.7564">
        <ele>-0.35</ele>
        <time>2017-06-02T11:49:08Z</time>
      </trkpt>
      <trkpt lat="42.56236" lon="8.75637">
        <ele>-0.26</ele>
        <time>2017-06-02T11:49:29Z</time>
      </trkpt>
      <trkpt lat="42.56243" lon="8.75633">
        <ele>0.82</ele>
        <time>2017-06-02T11:49:54Z</time>
      </trkpt>
      <trkpt lat="42.56241" lon="8.75639">
        <ele>0.68</ele>
        <time>2017-06-02T11:50:21Z</time>
      </trkpt>
      <trkpt lat="42.56242" lon="8.75636">
        <ele>0.27</ele>
        <time>2017-06-02T11:50:59Z</time>
      </trkpt>
      <trkpt lat="42.5623" lon="8.75638">
        <ele>-0.03</ele>
        <time>2017-06-02T11:51:19Z</time>
      </trkpt>
      <trkpt lat="42.56222" lon="8.7564">
        <ele>-0.13</ele>
        <time>2017-06-02T11:51:43Z</time>
      </trkpt>
      <trkpt lat="42.56221" lon="8.75637">
        <ele>-0.07</ele>
        <time>2017-06-02T11:52:07Z</time>
      </trkpt>
      <trkpt lat="42.56218" lon="8.75637">
        <ele>0.01</ele>
        <time>2017-06-02T11:52:35Z</time>
      </trkpt>
      <trkpt lat="42.5622" lon="8.75638">
        <ele>-0.52</ele>
        <time>2017-06-02T11:53:02Z</time>
      </trkpt>
      <trkpt lat="42.56219" lon="8.75638">
        <ele>97.44</ele>
        <time>2017-06-02T11:53:08Z</time>
      </trkpt>
      <trkpt lat="42.56219" lon="8.75638">
        <ele>97.44</ele>
        <time>2017-06-02T11:53:09Z</time>
      </trkpt>
    </trkseg>
  </trk>
</gpx>